Observation data for Fort Lewis CO on 02/22/2019      Previous  Date  Next       Current Mesonet Observations  Soil Data  Daily Summary Page  Observations in Plain Language
KFL1 220600Z 14010KT M04/M05 A2967 RMK A01 T10411045  RH  098%=      5-min Rain = 0
KFL1 220601Z 13008KT M04/M05 A2967 RMK A01 T10411045  RH  098%=      5-min Rain = 0
KFL1 220602Z 13007KT M04/M05 A2967 RMK A01 T10421046  RH  098%=      5-min Rain = 0
KFL1 220603Z 13007KT M04/M05 A2967 RMK A01 T10411045  RH  098%=      5-min Rain = 0
KFL1 220604Z 14008KT M04/M04 A2967 RMK A01 T10401044  RH  098%=      5-min Rain = 0
KFL1 220605Z 13007KT M04/M04 A2967 RMK A01 T10401043  RH  098%=      5-min Rain = 0
KFL1 220606Z 13006KT M04/M04 A2968 RMK A01 T10411044  RH  098%=      5-min Rain = 0
KFL1 220607Z 13005KT M04/M04 A2968 RMK A01 T10391042  RH  098%=      5-min Rain = 0
KFL1 220608Z 14006KT M04/M04 A2968 RMK A01 T10411044  RH  098%=      5-min Rain = 0
KFL1 220609Z 14007KT M04/M04 A2968 RMK A01 T10401043  RH  098%=      5-min Rain = 0
KFL1 220610Z 14006KT M04/M04 A2968 RMK A01 T10401043  RH  098%=      5-min Rain = 0
KFL1 220611Z 14005KT M04/M04 A2968 RMK A01 T10401043  RH  098%=      5-min Rain = 0
KFL1 220612Z 14006KT M04/M04 A2968 RMK A01 T10401044  RH  098%=      5-min Rain = 0
KFL1 220613Z 14006KT M04/M04 A2968 RMK A01 T10401044  RH  098%=      5-min Rain = 0
KFL1 220614Z 13006KT M04/M04 A2968 RMK A01 T10401043  RH  098%=      5-min Rain = 0
KFL1 220615Z 14008KT M04/M04 A2968 RMK A01 T10401044  RH  098%=      5-min Rain = 0
KFL1 220616Z 13007KT M04/M04 A2968 RMK A01 T10411044  RH  097%=      5-min Rain = 0
KFL1 220617Z 14007KT M04/M04 A2968 RMK A01 T10401044  RH  097%=      5-min Rain = 0
KFL1 220618Z 14007KT M04/M04 A2968 RMK A01 T10391043  RH  098%=      5-min Rain = 0
KFL1 220619Z 15010KT M04/M04 A2968 RMK A01 T10401043  RH  098%=      5-min Rain = 0
KFL1 220620Z 14009KT M04/M04 A2968 RMK A01 T10401043  RH  097%=      5-min Rain = 0
KFL1 220621Z 15008KT M04/M04 A2968 RMK A01 T10401044  RH  097%=      5-min Rain = 0
KFL1 220622Z 14007KT M04/M05 A2968 RMK A01 T10411045  RH  097%=      5-min Rain = 0
KFL1 220623Z 14006KT M04/M04 A2968 RMK A01 T10401044  RH  097%=      5-min Rain = 0
KFL1 220624Z 14008KT M04/M04 A2968 RMK A01 T10401044  RH  097%=      5-min Rain = 0
KFL1 220625Z 14008KT M04/M04 A2968 RMK A01 T10391042  RH  098%=      5-min Rain = 0
KFL1 220626Z 13009KT M04/M04 A2968 RMK A01 T10391042  RH  098%=      5-min Rain = 0
KFL1 220627Z 14009KT M04/M04 A2968 RMK A01 T10411044  RH  097%=      5-min Rain = 0
KFL1 220628Z 13010KT M04/M04 A2968 RMK A01 T10411044  RH  097%=      5-min Rain = 0
KFL1 220629Z 14010KT M04/M04 A2968 RMK A01 T10401044  RH  098%=      5-min Rain = 0
KFL1 220630Z 14008KT M04/M04 A2968 RMK A01 T10411044  RH  097%=      5-min Rain = 0
KFL1 220631Z 14007KT M04/M04 A2968 RMK A01 T10401043  RH  097%=      5-min Rain = 0
KFL1 220632Z 13006KT M04/M04 A2968 RMK A01 T10411044  RH  097%=      5-min Rain = 0
KFL1 220633Z 13006KT M04/M04 A2968 RMK A01 T10401044  RH  098%=      5-min Rain = 0
KFL1 220634Z 13007KT M04/M04 A2968 RMK A01 T10391042  RH  098%=      5-min Rain = 0
KFL1 220635Z 14006KT M04/M04 A2968 RMK A01 T10411044  RH  097%=      5-min Rain = 0
KFL1 220636Z 14005KT M04/M04 A2968 RMK A01 T10411044  RH  097%=      5-min Rain = 0
KFL1 220637Z 13006KT M04/M04 A2968 RMK A01 T10411044  RH  097%=      5-min Rain = 0
KFL1 220638Z 13005KT M04/M05 A2968 RMK A01 T10411045  RH  097%=      5-min Rain = 0
KFL1 220639Z 12006KT M04/M04 A2968 RMK A01 T10411044  RH  097%=      5-min Rain = 0
KFL1 220640Z 13006KT M04/M04 A2967 RMK A01 T10401044  RH  097%=      5-min Rain = 0
KFL1 220641Z 13006KT M04/M04 A2967 RMK A01 T10401043  RH  097%=      5-min Rain = 0
KFL1 220642Z 13006KT M04/M05 A2967 RMK A01 T10411045  RH  097%=      5-min Rain = 0
KFL1 220643Z 14006KT M04/M04 A2968 RMK A01 T10401043  RH  097%=      5-min Rain = 0
KFL1 220644Z 13005KT M04/M05 A2968 RMK A01 T10411045  RH  097%=      5-min Rain = 0
KFL1 220645Z 12005KT M04/M04 A2968 RMK A01 T10401044  RH  097%=      5-min Rain = 0
KFL1 220646Z 13004KT M04/M04 A2968 RMK A01 T10401044  RH  097%=      5-min Rain = 0
KFL1 220647Z 12003KT M04/M05 A2968 RMK A01 T10411045  RH  097%=      5-min Rain = 0
KFL1 220648Z 12005KT M04/M04 A2968 RMK A01 T10401044  RH  097%=      5-min Rain = 0
KFL1 220649Z 13005KT M04/M05 A2968 RMK A01 T10421046  RH  097%=      5-min Rain = 0
KFL1 220650Z 12004KT M04/M04 A2968 RMK A01 T10411044  RH  097%=      5-min Rain = 0
KFL1 220651Z 11004KT M04/M05 A2968 RMK A01 T10411045  RH  097%=      5-min Rain = 0
KFL1 220652Z 13005KT M04/M05 A2968 RMK A01 T10411045  RH  097%=      5-min Rain = 0
KFL1 220653Z 12004KT M04/M05 A2968 RMK A01 T10421046  RH  097%=      5-min Rain = 0
KFL1 220654Z 12004KT M04/M05 A2968 RMK A01 T10411045  RH  097%=      5-min Rain = 0
KFL1 220655Z 11004KT M04/M05 A2968 RMK A01 T10421046  RH  097%=      5-min Rain = 0
KFL1 220656Z 11003KT M04/M04 A2968 RMK A01 T10401044  RH  097%=      5-min Rain = 0
KFL1 220657Z 09004KT M04/M05 A2968 RMK A01 T10421046  RH  097%=      5-min Rain = 0
KFL1 220658Z 10004KT M04/M05 A2968 RMK A01 T10421046  RH  097%=      5-min Rain = 0
KFL1 220659Z 10005KT M04/M05 A2968 RMK A01 T10411045  RH  097%=      5-min Rain = 0
KFL1 220700Z 11004KT M04/M05 A2968 RMK A01 T10421046  RH  097%=      5-min Rain = 0
KFL1 220701Z 10003KT M04/M05 A2967 RMK A01 T10421046  RH  097%=      5-min Rain = 0
KFL1 220702Z 09003KT M04/M05 A2967 RMK A01 T10411045  RH  097%=      5-min Rain = 0
KFL1 220703Z 08003KT M04/M05 A2967 RMK A01 T10421046  RH  097%=      5-min Rain = 0
KFL1 220704Z 08003KT M04/M05 A2967 RMK A01 T10421046  RH  097%=      5-min Rain = 0
KFL1 220705Z 09002KT M04/M05 A2967 RMK A01 T10421046  RH  097%=      5-min Rain = 0
KFL1 220706Z 09002KT M04/M05 A2967 RMK A01 T10421046  RH  097%=      5-min Rain = 0
KFL1 220707Z 09002KT M04/M05 A2967 RMK A01 T10421046  RH  097%=      5-min Rain = 0
KFL1 220708Z 10001KT M04/M05 A2967 RMK A01 T10421046  RH  097%=      5-min Rain = 0
KFL1 220709Z 09002KT M04/M05 A2967 RMK A01 T10421046  RH  097%=      5-min Rain = 0
KFL1 220710Z 10003KT M04/M05 A2967 RMK A01 T10421046  RH  097%=      5-min Rain = 0
KFL1 220711Z 09004KT M04/M05 A2968 RMK A01 T10421046  RH  097%=      5-min Rain = 0
KFL1 220712Z 08003KT M04/M05 A2967 RMK A01 T10431047  RH  097%=      5-min Rain = 0
KFL1 220713Z 07004KT M04/M05 A2968 RMK A01 T10431047  RH  097%=      5-min Rain = 0
KFL1 220714Z 08004KT M04/M05 A2968 RMK A01 T10431047  RH  097%=      5-min Rain = 0
KFL1 220715Z 06005KT M04/M05 A2968 RMK A01 T10431047  RH  097%=      5-min Rain = 0
KFL1 220716Z 10004KT M04/M05 A2968 RMK A01 T10431047  RH  097%=      5-min Rain = 0
KFL1 220717Z 08004KT M04/M05 A2968 RMK A01 T10431047  RH  097%=      5-min Rain = 0
KFL1 220718Z 08005KT M04/M05 A2968 RMK A01 T10421045  RH  097%=      5-min Rain = 0
KFL1 220719Z 07004KT M04/M05 A2968 RMK A01 T10411045  RH  097%=      5-min Rain = 0
KFL1 220720Z 10005KT M04/M05 A2968 RMK A01 T10431046  RH  097%=      5-min Rain = 0
KFL1 220721Z 13005KT M04/M05 A2968 RMK A01 T10431047  RH  097%=      5-min Rain = 0
KFL1 220722Z 11005KT M04/M05 A2968 RMK A01 T10421046  RH  097%=      5-min Rain = 0
KFL1 220723Z 12004KT M04/M05 A2968 RMK A01 T10441047  RH  097%=      5-min Rain = 0
KFL1 220724Z 13006KT M04/M05 A2968 RMK A01 T10431047  RH  097%=      5-min Rain = 0
KFL1 220725Z 09007KT M04/M05 A2968 RMK A01 T10431047  RH  097%=      5-min Rain = 0
KFL1 220726Z 10005KT M04/M05 A2968 RMK A01 T10431047  RH  097%=      5-min Rain = 0
KFL1 220727Z 14006KT M04/M05 A2968 RMK A01 T10441048  RH  097%=      5-min Rain = 0
KFL1 220728Z 14005KT M04/M05 A2968 RMK A01 T10431046  RH  097%=      5-min Rain = 0
KFL1 220729Z 14005KT M04/M05 A2968 RMK A01 T10411045  RH  097%=      5-min Rain = 0
KFL1 220730Z 14005KT M04/M05 A2968 RMK A01 T10421046  RH  097%=      5-min Rain = 0
KFL1 220731Z 14007KT M04/M05 A2968 RMK A01 T10421046  RH  097%=      5-min Rain = 0
KFL1 220732Z 14006KT M04/M05 A2969 RMK A01 T10421046  RH  097%=      5-min Rain = 0
KFL1 220733Z 15008KT M04/M05 A2969 RMK A01 T10421046  RH  097%=      5-min Rain = 0
KFL1 220734Z 15008KT M04/M05 A2969 RMK A01 T10421046  RH  097%=      5-min Rain = 0
KFL1 220735Z 15007KT M04/M04 A2969 RMK A01 T10411044  RH  097%=      5-min Rain = 0
KFL1 220736Z 14007KT M04/M05 A2969 RMK A01 T10421046  RH  097%=      5-min Rain = 0
KFL1 220737Z 14008KT M04/M05 A2969 RMK A01 T10431046  RH  097%=      5-min Rain = 0
KFL1 220738Z 14008KT M04/M05 A2969 RMK A01 T10421045  RH  097%=      5-min Rain = 0
KFL1 220739Z 14007KT M04/M05 A2969 RMK A01 T10421046  RH  097%=      5-min Rain = 0
KFL1 220740Z 14007KT M04/M05 A2969 RMK A01 T10411045  RH  097%=      5-min Rain = 0
KFL1 220741Z 14006KT M04/M05 A2969 RMK A01 T10421046  RH  097%=      5-min Rain = 0
KFL1 220742Z 14006KT M04/M05 A2969 RMK A01 T10421045  RH  097%=      5-min Rain = 0
KFL1 220743Z 15006KT M04/M05 A2969 RMK A01 T10421046  RH  097%=      5-min Rain = 0
KFL1 220744Z 14007KT M04/M05 A2969 RMK A01 T10421045  RH  097%=      5-min Rain = 0
KFL1 220745Z 14006KT M04/M05 A2969 RMK A01 T10421046  RH  097%=      5-min Rain = 0
KFL1 220746Z 15006KT M04/M05 A2969 RMK A01 T10421046  RH  097%=      5-min Rain = 0
KFL1 220747Z 15004KT M04/M05 A2969 RMK A01 T10421046  RH  097%=      5-min Rain = 0
KFL1 220748Z 14004KT M04/M05 A2969 RMK A01 T10421046  RH  097%=      5-min Rain = 0
KFL1 220749Z 14003KT M04/M05 A2969 RMK A01 T10421045  RH  097%=      5-min Rain = 0
KFL1 220750Z 14004KT M04/M05 A2969 RMK A01 T10431047  RH  097%=      5-min Rain = 0
KFL1 220751Z 15005KT M04/M05 A2969 RMK A01 T10421046  RH  097%=      5-min Rain = 0
KFL1 220752Z 16004KT M04/M05 A2969 RMK A01 T10421045  RH  097%=      5-min Rain = 0
KFL1 220753Z 14002KT M04/M05 A2969 RMK A01 T10411045  RH  097%=      5-min Rain = 0
KFL1 220754Z 14003KT M04/M05 A2969 RMK A01 T10421046  RH  097%=      5-min Rain = 0
KFL1 220755Z 15003KT M04/M05 A2969 RMK A01 T10421046  RH  097%=      5-min Rain = 0
KFL1 220756Z 15003KT M04/M05 A2969 RMK A01 T10431047  RH  097%=      5-min Rain = 0
KFL1 220757Z 16002KT M04/M05 A2969 RMK A01 T10411045  RH  097%=      5-min Rain = 0
KFL1 220758Z 15001KT M04/M05 A2969 RMK A01 T10421045  RH  097%=      5-min Rain = 0
KFL1 220759Z 16001KT M04/M05 A2969 RMK A01 T10421046  RH  097%=      5-min Rain = 0
KFL1 220800Z 15002KT M04/M05 A2969 RMK A01 T10411045  RH  097%=      5-min Rain = 0
KFL1 220801Z 16002KT M04/M05 A2969 RMK A01 T10421046  RH  097%=      5-min Rain = 0
KFL1 220802Z 16001KT M04/M05 A2969 RMK A01 T10421046  RH  097%=      5-min Rain = 0
KFL1 220803Z 14001KT M04/M05 A2969 RMK A01 T10411045  RH  097%=      5-min Rain = 0
KFL1 220804Z 17001KT M04/M05 A2969 RMK A01 T10421046  RH  097%=      5-min Rain = 0
KFL1 220805Z 16002KT M04/M05 A2969 RMK A01 T10421046  RH  097%=      5-min Rain = 0
KFL1 220806Z 15002KT M04/M05 A2969 RMK A01 T10431047  RH  097%=      5-min Rain = 0
KFL1 220807Z 15003KT M04/M05 A2969 RMK A01 T10421046  RH  097%=      5-min Rain = 0
KFL1 220808Z 13001KT M04/M05 A2969 RMK A01 T10421045  RH  097%=      5-min Rain = 0
KFL1 220809Z 14000KT M04/M05 A2969 RMK A01 T10431047  RH  097%=      5-min Rain = 0
KFL1 220810Z 17000KT M04/M05 A2969 RMK A01 T10431047  RH  097%=      5-min Rain = 0
KFL1 220811Z 17002KT M04/M05 A2969 RMK A01 T10411045  RH  097%=      5-min Rain = 0
KFL1 220812Z 17002KT M04/M05 A2969 RMK A01 T10431047  RH  097%=      5-min Rain = 0
KFL1 220813Z 16002KT M04/M05 A2969 RMK A01 T10431047  RH  097%=      5-min Rain = 0
KFL1 220814Z 13001KT M04/M05 A2969 RMK A01 T10441047  RH  097%=      5-min Rain = 0
KFL1 220815Z 13001KT M04/M05 A2969 RMK A01 T10431047  RH  097%=      5-min Rain = 0
KFL1 220816Z 16001KT M04/M05 A2969 RMK A01 T10421046  RH  097%=      5-min Rain = 0
KFL1 220817Z 17002KT M04/M05 A2969 RMK A01 T10421046  RH  097%=      5-min Rain = 0
KFL1 220818Z 19003KT M04/M05 A297 RMK A01 T10431046  RH  097%=      5-min Rain = 0
KFL1 220819Z 17002KT M04/M05 A297 RMK A01 T10431047  RH  097%=      5-min Rain = 0
KFL1 220820Z 19001KT M04/M05 A297 RMK A01 T10421046  RH  097%=      5-min Rain = 0
KFL1 220821Z 19001KT M04/M05 A297 RMK A01 T10431047  RH  097%=      5-min Rain = 0
KFL1 220822Z 17001KT M04/M05 A297 RMK A01 T10421045  RH  097%=      5-min Rain = 0
KFL1 220823Z 16002KT M04/M05 A297 RMK A01 T10421046  RH  097%=      5-min Rain = 0
KFL1 220824Z 15002KT M04/M05 A297 RMK A01 T10431046  RH  097%=      5-min Rain = 0
KFL1 220825Z 14001KT M04/M05 A2969 RMK A01 T10431046  RH  097%=      5-min Rain = 0
KFL1 220826Z 12001KT M04/M05 A2969 RMK A01 T10431047  RH  097%=      5-min Rain = 0
KFL1 220827Z 13001KT M04/M05 A2969 RMK A01 T10441048  RH  097%=      5-min Rain = 0
KFL1 220828Z 10001KT M04/M05 A2969 RMK A01 T10421046  RH  097%=      5-min Rain = 0
KFL1 220829Z 08000KT M04/M05 A2969 RMK A01 T10431046  RH  097%=      5-min Rain = 0
KFL1 220830Z 11000KT M04/M05 A2969 RMK A01 T10431046  RH  097%=      5-min Rain = 0
KFL1 220831Z 12001KT M04/M05 A2969 RMK A01 T10431047  RH  097%=      5-min Rain = 0
KFL1 220832Z 15001KT M04/M05 A2969 RMK A01 T10431047  RH  097%=      5-min Rain = 0
KFL1 220833Z 12001KT M04/M05 A2969 RMK A01 T10431046  RH  097%=      5-min Rain = 0
KFL1 220834Z 14002KT M04/M05 A297 RMK A01 T10421045  RH  097%=      5-min Rain = 0
KFL1 220835Z 14002KT M04/M05 A297 RMK A01 T10421046  RH  097%=      5-min Rain = 0
KFL1 220836Z 15002KT M04/M05 A297 RMK A01 T10421046  RH  097%=      5-min Rain = 0
KFL1 220837Z 16002KT M04/M05 A297 RMK A01 T10411045  RH  097%=      5-min Rain = 0
KFL1 220838Z 15002KT M04/M05 A297 RMK A01 T10421046  RH  097%=      5-min Rain = 0
KFL1 220839Z 14002KT M04/M05 A297 RMK A01 T10431046  RH  097%=      5-min Rain = 0
KFL1 220840Z 15001KT M04/M05 A297 RMK A01 T10431047  RH  097%=      5-min Rain = 0
KFL1 220841Z 14002KT M04/M05 A297 RMK A01 T10421046  RH  097%=      5-min Rain = 0
KFL1 220842Z 12002KT M04/M05 A297 RMK A01 T10421046  RH  097%=      5-min Rain = 0
KFL1 220843Z 11002KT M04/M05 A297 RMK A01 T10421046  RH  097%=      5-min Rain = 0
KFL1 220844Z 10002KT M04/M05 A2969 RMK A01 T10431047  RH  097%=      5-min Rain = 0
KFL1 220845Z 10002KT M04/M05 A2969 RMK A01 T10421046  RH  097%=      5-min Rain = 0
KFL1 220846Z 10002KT M04/M05 A297 RMK A01 T10431046  RH  097%=      5-min Rain = 0
KFL1 220847Z 10002KT M04/M05 A297 RMK A01 T10421046  RH  097%=      5-min Rain = 0
KFL1 220848Z 11002KT M04/M05 A297 RMK A01 T10431046  RH  097%=      5-min Rain = 0
KFL1 220849Z 10002KT M04/M05 A297 RMK A01 T10431046  RH  097%=      5-min Rain = 0
KFL1 220850Z 11002KT M04/M05 A2969 RMK A01 T10421046  RH  097%=      5-min Rain = 0
KFL1 220851Z 11002KT M04/M05 A2969 RMK A01 T10421046  RH  097%=      5-min Rain = 0
KFL1 220852Z 11002KT M04/M05 A297 RMK A01 T10421046  RH  097%=      5-min Rain = 0
KFL1 220853Z 11002KT M04/M05 A297 RMK A01 T10431047  RH  097%=      5-min Rain = 0
KFL1 220854Z 10002KT M04/M05 A297 RMK A01 T10431047  RH  097%=      5-min Rain = 0
KFL1 220855Z 11002KT M04/M05 A297 RMK A01 T10421046  RH  097%=      5-min Rain = 0
KFL1 220856Z 10002KT M04/M05 A297 RMK A01 T10431047  RH  097%=      5-min Rain = 0
KFL1 220857Z 10002KT M04/M05 A297 RMK A01 T10431047  RH  097%=      5-min Rain = 0
KFL1 220858Z 09003KT M04/M05 A2969 RMK A01 T10441048  RH  097%=      5-min Rain = 0
KFL1 220859Z 10003KT M04/M05 A2969 RMK A01 T10431046  RH  097%=      5-min Rain = 0
KFL1 220900Z 09003KT M04/M05 A2969 RMK A01 T10421046  RH  097%=      5-min Rain = 0
KFL1 220901Z 08003KT M04/M05 A2969 RMK A01 T10431046  RH  097%=      5-min Rain = 0
KFL1 220902Z 08004KT M04/M05 A2969 RMK A01 T10431047  RH  097%=      5-min Rain = 0
KFL1 220903Z 07004KT M04/M05 A2968 RMK A01 T10441048  RH  097%=      5-min Rain = 0
KFL1 220904Z 08005KT M04/M05 A2968 RMK A01 T10431047  RH  097%=      5-min Rain = 0
KFL1 220905Z 08005KT M04/M05 A2968 RMK A01 T10431047  RH  097%=      5-min Rain = 0
KFL1 220906Z 09005KT M04/M05 A2968 RMK A01 T10431047  RH  097%=      5-min Rain = 0
KFL1 220907Z 09005KT M04/M05 A2969 RMK A01 T10431047  RH  097%=      5-min Rain = 0
KFL1 220908Z 10004KT M04/M05 A2969 RMK A01 T10421046  RH  097%=      5-min Rain = 0
KFL1 220909Z 09005KT M04/M05 A2969 RMK A01 T10431047  RH  097%=      5-min Rain = 0
KFL1 220910Z 10004KT M04/M05 A2969 RMK A01 T10421046  RH  097%=      5-min Rain = 0
KFL1 220911Z 10004KT M04/M05 A2969 RMK A01 T10441048  RH  097%=      5-min Rain = 0
KFL1 220912Z 10004KT M04/M05 A2969 RMK A01 T10441048  RH  097%=      5-min Rain = 0
KFL1 220913Z 10004KT M04/M05 A2969 RMK A01 T10431047  RH  097%=      5-min Rain = 0
KFL1 220914Z 09004KT M04/M05 A2969 RMK A01 T10441048  RH  097%=      5-min Rain = 0
KFL1 220915Z 09004KT M04/M05 A2969 RMK A01 T10441048  RH  097%=      5-min Rain = 0
KFL1 220916Z 10005KT M04/M05 A2969 RMK A01 T10441048  RH  097%=      5-min Rain = 0
KFL1 220917Z 10005KT M04/M05 A2969 RMK A01 T10431047  RH  097%=      5-min Rain = 0
KFL1 220918Z 09005KT M04/M05 A297 RMK A01 T10441048  RH  097%=      5-min Rain = 0
KFL1 220919Z 10004KT M04/M05 A297 RMK A01 T10431046  RH  097%=      5-min Rain = 0
KFL1 220920Z 11004KT M04/M05 A297 RMK A01 T10431047  RH  097%=      5-min Rain = 0
KFL1 220921Z 10004KT M05/M05 A297 RMK A01 T10451049  RH  097%=      5-min Rain = 0
KFL1 220922Z 10004KT M04/M05 A297 RMK A01 T10421046  RH  097%=      5-min Rain = 0
KFL1 220923Z 10004KT M04/M05 A297 RMK A01 T10441048  RH  097%=      5-min Rain = 0
KFL1 220924Z 11004KT M04/M05 A297 RMK A01 T10431047  RH  097%=      5-min Rain = 0
KFL1 220925Z 11004KT M04/M05 A297 RMK A01 T10431047  RH  097%=      5-min Rain = 0
KFL1 220926Z 11003KT M04/M05 A297 RMK A01 T10441048  RH  097%=      5-min Rain = 0
KFL1 220927Z 11004KT M04/M05 A297 RMK A01 T10441048  RH  097%=      5-min Rain = 0
KFL1 220928Z 11004KT M04/M05 A297 RMK A01 T10441048  RH  097%=      5-min Rain = 0
KFL1 220929Z 11004KT M04/M05 A297 RMK A01 T10431047  RH  097%=      5-min Rain = 0
KFL1 220930Z 11004KT M04/M05 A297 RMK A01 T10431047  RH  097%=      5-min Rain = 0
KFL1 220931Z 10004KT M04/M05 A297 RMK A01 T10441048  RH  097%=      5-min Rain = 0
KFL1 220932Z 10003KT M04/M05 A297 RMK A01 T10441047  RH  097%=      5-min Rain = 0
KFL1 220933Z 10003KT M04/M05 A297 RMK A01 T10431047  RH  097%=      5-min Rain = 0
KFL1 220934Z 09004KT M04/M05 A297 RMK A01 T10431047  RH  097%=      5-min Rain = 0
KFL1 220935Z 09004KT M04/M05 A297 RMK A01 T10441048  RH  097%=      5-min Rain = 0
KFL1 220936Z 10004KT M04/M05 A297 RMK A01 T10431046  RH  097%=      5-min Rain = 0
KFL1 220937Z 11004KT M04/M05 A297 RMK A01 T10441048  RH  097%=      5-min Rain = 0
KFL1 220938Z 09003KT M04/M05 A297 RMK A01 T10431047  RH  097%=      5-min Rain = 0
KFL1 220939Z 09004KT M04/M05 A297 RMK A01 T10441048  RH  097%=      5-min Rain = 0
KFL1 220940Z 09003KT M04/M05 A297 RMK A01 T10431047  RH  097%=      5-min Rain = 0
KFL1 220941Z 09004KT M04/M05 A297 RMK A01 T10441047  RH  097%=      5-min Rain = 0
KFL1 220942Z 09003KT M04/M05 A297 RMK A01 T10441048  RH  097%=      5-min Rain = 0
KFL1 220943Z 09003KT M04/M05 A297 RMK A01 T10441048  RH  097%=      5-min Rain = 0
KFL1 220944Z 11003KT M04/M05 A297 RMK A01 T10421046  RH  097%=      5-min Rain = 0
KFL1 220945Z 10003KT M04/M05 A297 RMK A01 T10431047  RH  097%=      5-min Rain = 0
KFL1 220946Z 09003KT M04/M05 A297 RMK A01 T10441048  RH  097%=      5-min Rain = 0
KFL1 220947Z 09003KT M04/M05 A297 RMK A01 T10431047  RH  097%=      5-min Rain = 0
KFL1 220948Z 08003KT M04/M05 A297 RMK A01 T10431047  RH  097%=      5-min Rain = 0
KFL1 220949Z 07002KT M04/M05 A297 RMK A01 T10421046  RH  097%=      5-min Rain = 0
KFL1 220950Z 08003KT M04/M05 A297 RMK A01 T10441048  RH  097%=      5-min Rain = 0
KFL1 220951Z 08004KT M05/M05 A2969 RMK A01 T10451048  RH  097%=      5-min Rain = 0
KFL1 220952Z 08004KT M04/M05 A2969 RMK A01 T10441048  RH  097%=      5-min Rain = 0
KFL1 220953Z 09004KT M04/M05 A2969 RMK A01 T10431047  RH  097%=      5-min Rain = 0
KFL1 220954Z 08004KT M04/M05 A2969 RMK A01 T10431047  RH  097%=      5-min Rain = 0
KFL1 220955Z 09004KT M04/M05 A2969 RMK A01 T10431046  RH  097%=      5-min Rain = 0
KFL1 220956Z 08004KT M04/M05 A2969 RMK A01 T10431047  RH  097%=      5-min Rain = 0
KFL1 220957Z 07005KT M05/M05 A2969 RMK A01 T10451049  RH  097%=      5-min Rain = 0
KFL1 220958Z 08005KT M04/M05 A2969 RMK A01 T10441048  RH  097%=      5-min Rain = 0
KFL1 220959Z 09004KT M04/M05 A2969 RMK A01 T10421046  RH  097%=      5-min Rain = 0
KFL1 221000Z 09005KT M04/M05 A2969 RMK A01 T10441048  RH  097%=      5-min Rain = 0
KFL1 221001Z 09005KT M04/M05 A2969 RMK A01 T10431047  RH  097%=      5-min Rain = 0
KFL1 221002Z 08005KT M04/M05 A2969 RMK A01 T10441048  RH  097%=      5-min Rain = 0
KFL1 221003Z 09005KT M04/M05 A2969 RMK A01 T10441048  RH  097%=      5-min Rain = 0
KFL1 221004Z 09005KT M04/M05 A2969 RMK A01 T10431047  RH  097%=      5-min Rain = 0
KFL1 221005Z 09004KT M04/M05 A2969 RMK A01 T10441048  RH  097%=      5-min Rain = 0
KFL1 221006Z 10004KT M04/M05 A2969 RMK A01 T10441047  RH  097%=      5-min Rain = 0
KFL1 221007Z 10006KT M04/M05 A2969 RMK A01 T10431047  RH  097%=      5-min Rain = 0
KFL1 221008Z 10005KT M04/M05 A2969 RMK A01 T10431047  RH  097%=      5-min Rain = 0
KFL1 221009Z 09004KT M04/M05 A2969 RMK A01 T10431047  RH  097%=      5-min Rain = 0
KFL1 221010Z 09005KT M04/M05 A2969 RMK A01 T10431047  RH  097%=      5-min Rain = 0
KFL1 221011Z 09004KT M04/M05 A2969 RMK A01 T10431047  RH  097%=      5-min Rain = 0
KFL1 221012Z 10005KT M04/M05 A2969 RMK A01 T10431047  RH  097%=      5-min Rain = 0
KFL1 221013Z 10003KT M04/M05 A2969 RMK A01 T10431047  RH  097%=      5-min Rain = 0
KFL1 221014Z 10004KT M04/M05 A2969 RMK A01 T10431047  RH  097%=      5-min Rain = 0
KFL1 221015Z 09003KT M04/M05 A2969 RMK A01 T10441047  RH  097%=      5-min Rain = 0
KFL1 221016Z 09004KT M04/M05 A2969 RMK A01 T10431047  RH  097%=      5-min Rain = 0
KFL1 221017Z 10005KT M04/M05 A2969 RMK A01 T10441048  RH  097%=      5-min Rain = 0
KFL1 221018Z 11005KT M04/M05 A2969 RMK A01 T10431047  RH  097%=      5-min Rain = 0
KFL1 221019Z 09004KT M04/M05 A2969 RMK A01 T10431047  RH  097%=      5-min Rain = 0
KFL1 221020Z 10004KT M04/M05 A2969 RMK A01 T10441047  RH  097%=      5-min Rain = 0
KFL1 221021Z 10004KT M04/M05 A2969 RMK A01 T10431047  RH  097%=      5-min Rain = 0
KFL1 221022Z 09004KT M04/M05 A2969 RMK A01 T10431047  RH  097%=      5-min Rain = 0
KFL1 221023Z 09005KT M04/M05 A2969 RMK A01 T10431047  RH  097%=      5-min Rain = 0
KFL1 221024Z 08005KT M04/M05 A2968 RMK A01 T10441048  RH  097%=      5-min Rain = 0
KFL1 221025Z 08005KT M04/M05 A2968 RMK A01 T10421046  RH  097%=      5-min Rain = 0
KFL1 221026Z 08005KT M04/M05 A2968 RMK A01 T10431047  RH  097%=      5-min Rain = 0
KFL1 221027Z 08005KT M04/M05 A2968 RMK A01 T10431047  RH  097%=      5-min Rain = 0
KFL1 221028Z 08005KT M04/M05 A2968 RMK A01 T10431047  RH  097%=      5-min Rain = 0
KFL1 221029Z 09005KT M04/M05 A2968 RMK A01 T10441048  RH  097%=      5-min Rain = 0
KFL1 221030Z 09005KT M04/M05 A2968 RMK A01 T10431047  RH  097%=      5-min Rain = 0
KFL1 221031Z 09005KT M04/M05 A2968 RMK A01 T10441048  RH  097%=      5-min Rain = 0
KFL1 221032Z 09005KT M05/M05 A2968 RMK A01 T10451049  RH  097%=      5-min Rain = 0
KFL1 221033Z 09005KT M05/M05 A2968 RMK A01 T10451049  RH  097%=      5-min Rain = 0
KFL1 221034Z 09005KT M04/M05 A2968 RMK A01 T10431047  RH  097%=      5-min Rain = 0
KFL1 221035Z 09005KT M04/M05 A2968 RMK A01 T10441048  RH  097%=      5-min Rain = 0
KFL1 221036Z 08006KT M05/M05 A2968 RMK A01 T10451049  RH  097%=      5-min Rain = 0
KFL1 221037Z 07005KT M04/M05 A2967 RMK A01 T10441048  RH  097%=      5-min Rain = 0
KFL1 221038Z 09005KT M04/M05 A2967 RMK A01 T10441048  RH  097%=      5-min Rain = 0
KFL1 221039Z 09004KT M04/M05 A2967 RMK A01 T10441048  RH  097%=      5-min Rain = 0
KFL1 221040Z 07005KT M04/M05 A2967 RMK A01 T10441048  RH  097%=      5-min Rain = 0
KFL1 221041Z 07006KT M04/M05 A2967 RMK A01 T10441048  RH  097%=      5-min Rain = 0
KFL1 221042Z 08006KT M04/M05 A2967 RMK A01 T10431047  RH  097%=      5-min Rain = 0
KFL1 221043Z 08005KT M04/M05 A2967 RMK A01 T10431047  RH  097%=      5-min Rain = 0
KFL1 221044Z 08005KT M04/M05 A2967 RMK A01 T10441048  RH  097%=      5-min Rain = 0
KFL1 221045Z 08005KT M04/M05 A2968 RMK A01 T10441048  RH  097%=      5-min Rain = 0
KFL1 221046Z 08005KT M05/M05 A2968 RMK A01 T10451048  RH  097%=      5-min Rain = 0
KFL1 221047Z 08005KT M04/M05 A2968 RMK A01 T10431047  RH  097%=      5-min Rain = 0
KFL1 221048Z 08005KT M04/M05 A2968 RMK A01 T10441048  RH  097%=      5-min Rain = 0
KFL1 221049Z 09005KT M04/M05 A2968 RMK A01 T10431047  RH  097%=      5-min Rain = 0
KFL1 221050Z 09006KT M04/M05 A2968 RMK A01 T10431047  RH  097%=      5-min Rain = 0
KFL1 221051Z 09006KT M04/M05 A2968 RMK A01 T10441048  RH  097%=      5-min Rain = 0
KFL1 221052Z 09006KT M04/M05 A2968 RMK A01 T10441048  RH  097%=      5-min Rain = 0
KFL1 221053Z 09006KT M04/M05 A2968 RMK A01 T10441048  RH  097%=      5-min Rain = 0
KFL1 221054Z 09006KT M04/M05 A2968 RMK A01 T10441048  RH  097%=      5-min Rain = 0
KFL1 221055Z 09006KT M04/M05 A2968 RMK A01 T10441048  RH  097%=      5-min Rain = 0
KFL1 221056Z 09007KT M04/M05 A2968 RMK A01 T10431046  RH  097%=      5-min Rain = 0
KFL1 221057Z 08007KT M04/M05 A2968 RMK A01 T10441048  RH  097%=      5-min Rain = 0
KFL1 221058Z 08007KT M05/M05 A2968 RMK A01 T10451049  RH  097%=      5-min Rain = 0
KFL1 221059Z 09007KT M04/M05 A2968 RMK A01 T10431047  RH  097%=      5-min Rain = 0
KFL1 221100Z 08007KT M04/M05 A2968 RMK A01 T10421046  RH  097%=      5-min Rain = 0
KFL1 221101Z 08008KT M04/M05 A2967 RMK A01 T10441048  RH  097%=      5-min Rain = 0
KFL1 221102Z 08007KT M04/M05 A2967 RMK A01 T10441048  RH  097%=      5-min Rain = 0
KFL1 221103Z 08009KT M04/M05 A2967 RMK A01 T10441048  RH  097%=      5-min Rain = 0
KFL1 221104Z 07006KT M04/M05 A2967 RMK A01 T10441048  RH  097%=      5-min Rain = 0
KFL1 221105Z 08007KT M04/M05 A2967 RMK A01 T10441048  RH  097%=      5-min Rain = 0
KFL1 221106Z 08006KT M04/M05 A2968 RMK A01 T10441048  RH  097%=      5-min Rain = 0
KFL1 221107Z 08005KT M04/M05 A2968 RMK A01 T10431047  RH  097%=      5-min Rain = 0
KFL1 221108Z 08007KT M04/M05 A2968 RMK A01 T10431047  RH  097%=      5-min Rain = 0
KFL1 221109Z 08006KT M04/M05 A2968 RMK A01 T10441047  RH  097%=      5-min Rain = 0
KFL1 221110Z 08006KT M04/M05 A2968 RMK A01 T10431047  RH  097%=      5-min Rain = 0
KFL1 221111Z 09006KT M05/M05 A2968 RMK A01 T10451049  RH  097%=      5-min Rain = 0
KFL1 221112Z 09008KT M04/M05 A2968 RMK A01 T10441048  RH  097%=      5-min Rain = 0
KFL1 221113Z 09007KT M04/M05 A2968 RMK A01 T10441048  RH  097%=      5-min Rain = 0
KFL1 221114Z 08009KT M04/M05 A2968 RMK A01 T10431047  RH  097%=      5-min Rain = 0
KFL1 221115Z 09007KT M04/M05 A2968 RMK A01 T10441048  RH  097%=      5-min Rain = 0
KFL1 221116Z 09007KT M05/M05 A2968 RMK A01 T10451049  RH  097%=      5-min Rain = 0
KFL1 221117Z 09007KT M04/M05 A2968 RMK A01 T10431047  RH  097%=      5-min Rain = 0
KFL1 221118Z 08007KT M04/M05 A2968 RMK A01 T10431047  RH  097%=      5-min Rain = 0
KFL1 221119Z 09008KT M04/M05 A2968 RMK A01 T10431047  RH  097%=      5-min Rain = 0
KFL1 221120Z 09008KT M04/M05 A2968 RMK A01 T10441048  RH  097%=      5-min Rain = 0
KFL1 221121Z 10008KT M05/M05 A2968 RMK A01 T10451049  RH  097%=      5-min Rain = 0
KFL1 221122Z 09008KT M04/M05 A2968 RMK A01 T10441048  RH  097%=      5-min Rain = 0
KFL1 221123Z 10007KT M04/M05 A2968 RMK A01 T10431047  RH  097%=      5-min Rain = 0
KFL1 221124Z 10007KT M04/M05 A2968 RMK A01 T10441048  RH  097%=      5-min Rain = 0
KFL1 221125Z 10009G15KT M04/M05 A2968 RMK A01 T10441048  RH  097%=      5-min Rain = 0
KFL1 221126Z 11009KT M04/M05 A2968 RMK A01 T10441048  RH  097%=      5-min Rain = 0
KFL1 221127Z 10007KT M04/M05 A2968 RMK A01 T10441048  RH  097%=      5-min Rain = 0
KFL1 221128Z 10006KT M04/M05 A2968 RMK A01 T10441047  RH  097%=      5-min Rain = 0
KFL1 221129Z 10006KT M04/M05 A2968 RMK A01 T10431047  RH  097%=      5-min Rain = 0
KFL1 221130Z 11008KT M04/M05 A2969 RMK A01 T10431046  RH  097%=      5-min Rain = 0
KFL1 221131Z 12007KT M04/M05 A2969 RMK A01 T10431046  RH  097%=      5-min Rain = 0
KFL1 221132Z 12006KT M04/M05 A2969 RMK A01 T10441047  RH  097%=      5-min Rain = 0
KFL1 221133Z 10007KT M04/M05 A2969 RMK A01 T10431047  RH  097%=      5-min Rain = 0
KFL1 221134Z 11007KT M04/M05 A2969 RMK A01 T10441048  RH  097%=      5-min Rain = 0
KFL1 221135Z 11008KT M04/M05 A2969 RMK A01 T10441047  RH  097%=      5-min Rain = 0
KFL1 221136Z 11008KT M04/M05 A2969 RMK A01 T10431047  RH  097%=      5-min Rain = 0
KFL1 221137Z 12007KT M04/M05 A2969 RMK A01 T10421046  RH  097%=      5-min Rain = 0
KFL1 221138Z 12007KT M04/M05 A2969 RMK A01 T10421046  RH  097%=      5-min Rain = 0
KFL1 221139Z 12006KT M04/M05 A2969 RMK A01 T10421045  RH  097%=      5-min Rain = 0
KFL1 221140Z 12007KT M04/M05 A2969 RMK A01 T10431047  RH  097%=      5-min Rain = 0
KFL1 221141Z 13007KT M04/M05 A2969 RMK A01 T10441047  RH  097%=      5-min Rain = 0
KFL1 221142Z 12006KT M04/M05 A2969 RMK A01 T10421046  RH  097%=      5-min Rain = 0
KFL1 221143Z 11006KT M04/M05 A2969 RMK A01 T10421046  RH  097%=      5-min Rain = 0
KFL1 221144Z 13006KT M04/M05 A2969 RMK A01 T10421046  RH  097%=      5-min Rain = 0
KFL1 221145Z 13005KT M04/M05 A2969 RMK A01 T10431047  RH  097%=      5-min Rain = 0
KFL1 221146Z 12005KT M04/M05 A2969 RMK A01 T10421045  RH  097%=      5-min Rain = 0
KFL1 221147Z 12006KT M04/M05 A2969 RMK A01 T10421046  RH  097%=      5-min Rain = 0
KFL1 221148Z 12005KT M04/M05 A2969 RMK A01 T10431046  RH  097%=      5-min Rain = 0
KFL1 221149Z 12006KT M04/M05 A2969 RMK A01 T10431047  RH  097%=      5-min Rain = 0
KFL1 221150Z 12006KT M04/M05 A2969 RMK A01 T10431046  RH  097%=      5-min Rain = 0
KFL1 221151Z 12005KT M04/M05 A2969 RMK A01 T10441047  RH  097%=      5-min Rain = 0
KFL1 221152Z 10005KT M04/M05 A2969 RMK A01 T10421046  RH  097%=      5-min Rain = 0
KFL1 221153Z 10004KT M04/M05 A2969 RMK A01 T10421045  RH  097%=      5-min Rain = 0
KFL1 221154Z 11004KT M04/M05 A2969 RMK A01 T10421046  RH  097%=      5-min Rain = 0
KFL1 221155Z 10004KT M04/M05 A2969 RMK A01 T10431047  RH  097%=      5-min Rain = 0
KFL1 221156Z 11003KT M04/M05 A297 RMK A01 T10431046  RH  097%=      5-min Rain = 0
KFL1 221157Z 12002KT M04/M05 A297 RMK A01 T10441047  RH  097%=      5-min Rain = 0
KFL1 221158Z 12004KT M04/M05 A297 RMK A01 T10431046  RH  097%=      5-min Rain = 0
KFL1 221159Z 10004KT M04/M05 A297 RMK A01 T10421046  RH  097%=      5-min Rain = 0
KFL1 221200Z 12003KT M04/M05 A297 RMK A01 T10421045  RH  097%=      5-min Rain = 0
KFL1 221201Z 12004KT M04/M05 A297 RMK A01 T10431047  RH  097%=      5-min Rain = 0
KFL1 221202Z 13003KT M04/M05 A297 RMK A01 T10431047  RH  097%=      5-min Rain = 0
KFL1 221203Z 13003KT M04/M05 A297 RMK A01 T10421046  RH  097%=      5-min Rain = 0
KFL1 221204Z 12004KT M04/M05 A297 RMK A01 T10431047  RH  097%=      5-min Rain = 0
KFL1 221205Z 13005KT M04/M05 A297 RMK A01 T10431047  RH  097%=      5-min Rain = 0
KFL1 221206Z 15005KT M04/M05 A297 RMK A01 T10421046  RH  097%=      5-min Rain = 0
KFL1 221207Z 14004KT M04/M05 A297 RMK A01 T10431047  RH  097%=      5-min Rain = 0
KFL1 221208Z 13005KT M04/M05 A297 RMK A01 T10421046  RH  097%=      5-min Rain = 0
KFL1 221209Z 14004KT M04/M05 A297 RMK A01 T10411045  RH  097%=      5-min Rain = 0
KFL1 221210Z 14003KT M04/M05 A297 RMK A01 T10431047  RH  097%=      5-min Rain = 0
KFL1 221211Z 14004KT M04/M05 A297 RMK A01 T10421046  RH  097%=      5-min Rain = 0
KFL1 221212Z 15005KT M04/M05 A297 RMK A01 T10431047  RH  097%=      5-min Rain = 0
KFL1 221213Z 16005KT M04/M05 A297 RMK A01 T10431046  RH  097%=      5-min Rain = 0
KFL1 221214Z 15005KT M04/M05 A297 RMK A01 T10421046  RH  097%=      5-min Rain = 0
KFL1 221215Z 15005KT M04/M05 A2971 RMK A01 T10431046  RH  097%=      5-min Rain = 0
KFL1 221216Z 17004KT M04/M05 A2971 RMK A01 T10421046  RH  097%=      5-min Rain = 0
KFL1 221217Z 16004KT M04/M05 A2971 RMK A01 T10421046  RH  098%=      5-min Rain = 0
KFL1 221218Z 16004KT M04/M05 A2971 RMK A01 T10411045  RH  098%=      5-min Rain = 0
KFL1 221219Z 15004KT M04/M05 A2971 RMK A01 T10421046  RH  098%=      5-min Rain = 0
KFL1 221220Z 15004KT M04/M05 A2971 RMK A01 T10421045  RH  098%=      5-min Rain = 0
KFL1 221221Z 16005KT M04/M04 A2971 RMK A01 T10411044  RH  098%=      5-min Rain = 0
KFL1 221222Z 13004KT M04/M04 A2971 RMK A01 T10411044  RH  098%=      5-min Rain = 0
KFL1 221223Z 13004KT M04/M05 A2971 RMK A01 T10411045  RH  098%=      5-min Rain = 0
KFL1 221224Z 13002KT M04/M05 A297 RMK A01 T10421045  RH  098%=      5-min Rain = 0
KFL1 221225Z 13003KT M04/M05 A297 RMK A01 T10421046  RH  098%=      5-min Rain = 0
KFL1 221226Z 11004KT M04/M04 A297 RMK A01 T10401044  RH  098%=      5-min Rain = 0
KFL1 221227Z 12004KT M04/M04 A297 RMK A01 T10411044  RH  098%=      5-min Rain = 0
KFL1 221228Z 12004KT M04/M04 A297 RMK A01 T10411044  RH  098%=      5-min Rain = 0
KFL1 221229Z 11004KT M04/M04 A297 RMK A01 T10411044  RH  098%=      5-min Rain = 0
KFL1 221230Z 12005KT M04/M04 A297 RMK A01 T10411044  RH  098%=      5-min Rain = 0
KFL1 221231Z 11005KT M04/M05 A297 RMK A01 T10411045  RH  098%=      5-min Rain = 0
KFL1 221232Z 12004KT M04/M05 A297 RMK A01 T10411045  RH  097%=      5-min Rain = 0
KFL1 221233Z 12006KT M04/M04 A297 RMK A01 T10411044  RH  097%=      5-min Rain = 0
KFL1 221234Z 10006KT M04/M05 A297 RMK A01 T10411045  RH  097%=      5-min Rain = 0
KFL1 221235Z 10007KT M04/M05 A2969 RMK A01 T10411045  RH  097%=      5-min Rain = 0
KFL1 221236Z 10007KT M04/M05 A2969 RMK A01 T10411045  RH  097%=      5-min Rain = 0
KFL1 221237Z 11007KT M04/M05 A2969 RMK A01 T10411045  RH  098%=      5-min Rain = 0
KFL1 221238Z 10006KT M04/M05 A2969 RMK A01 T10421046  RH  097%=      5-min Rain = 0
KFL1 221239Z 10006KT M04/M04 A2969 RMK A01 T10411044  RH  097%=      5-min Rain = 0
KFL1 221240Z 11006KT M04/M04 A2969 RMK A01 T10401044  RH  097%=      5-min Rain = 0
KFL1 221241Z 10006KT M04/M05 A2969 RMK A01 T10411045  RH  097%=      5-min Rain = 0
KFL1 221242Z 11005KT M04/M05 A2969 RMK A01 T10421045  RH  097%=      5-min Rain = 0
KFL1 221243Z 10006KT M04/M05 A2969 RMK A01 T10421046  RH  097%=      5-min Rain = 0
KFL1 221244Z 10006KT M04/M05 A2969 RMK A01 T10421046  RH  097%=      5-min Rain = 0
KFL1 221245Z 10005KT M04/M05 A2969 RMK A01 T10421045  RH  097%=      5-min Rain = 0
KFL1 221246Z 12005KT M04/M05 A2969 RMK A01 T10421046  RH  097%=      5-min Rain = 0
KFL1 221247Z 12004KT M04/M05 A2969 RMK A01 T10421045  RH  097%=      5-min Rain = 0
KFL1 221248Z 10005KT M04/M05 A2969 RMK A01 T10421046  RH  097%=      5-min Rain = 0
KFL1 221249Z 12004KT M04/M04 A2969 RMK A01 T10411044  RH  097%=      5-min Rain = 0
KFL1 221250Z 12005KT M04/M05 A2969 RMK A01 T10411045  RH  097%=      5-min Rain = 0
KFL1 221251Z 11003KT M04/M05 A2969 RMK A01 T10421046  RH  097%=      5-min Rain = 0
KFL1 221252Z 11003KT M04/M04 A2969 RMK A01 T10411044  RH  098%=      5-min Rain = 0
KFL1 221253Z 11004KT M04/M04 A2969 RMK A01 T10411044  RH  098%=      5-min Rain = 0
KFL1 221254Z 13004KT M04/M05 A2969 RMK A01 T10421045  RH  097%=      5-min Rain = 0
KFL1 221255Z 12004KT M04/M05 A2969 RMK A01 T10421045  RH  097%=      5-min Rain = 0
KFL1 221256Z 10005KT M04/M05 A2969 RMK A01 T10411045  RH  098%=      5-min Rain = 0
KFL1 221257Z 11004KT M04/M05 A2969 RMK A01 T10421045  RH  098%=      5-min Rain = 0
KFL1 221258Z 11004KT M04/M04 A2969 RMK A01 T10411044  RH  098%=      5-min Rain = 0
KFL1 221259Z 12004KT M04/M05 A2969 RMK A01 T10421046  RH  097%=      5-min Rain = 0
KFL1 221300Z 12004KT M04/M05 A2969 RMK A01 T10421046  RH  097%=      5-min Rain = 0
KFL1 221301Z 11004KT M04/M05 A2969 RMK A01 T10421045  RH  097%=      5-min Rain = 0
KFL1 221302Z 11004KT M04/M05 A2969 RMK A01 T10411045  RH  097%=      5-min Rain = 0
KFL1 221303Z 11004KT M04/M05 A2969 RMK A01 T10421046  RH  097%=      5-min Rain = 0
KFL1 221304Z 11004KT M04/M05 A2969 RMK A01 T10421046  RH  097%=      5-min Rain = 0
KFL1 221305Z 11004KT M04/M05 A2969 RMK A01 T10411045  RH  097%=      5-min Rain = 0
KFL1 221306Z 11004KT M04/M05 A2969 RMK A01 T10421046  RH  097%=      5-min Rain = 0
KFL1 221307Z 09006KT M04/M05 A2969 RMK A01 T10411045  RH  097%=      5-min Rain = 0
KFL1 221308Z 10006KT M04/M04 A2969 RMK A01 T10401044  RH  097%=      5-min Rain = 0
KFL1 221309Z 10006KT M04/M05 A2969 RMK A01 T10411045  RH  097%=      5-min Rain = 0
KFL1 221310Z 10005KT M04/M05 A2969 RMK A01 T10411045  RH  097%=      5-min Rain = 0
KFL1 221311Z 09006KT M04/M04 A2969 RMK A01 T10411044  RH  097%=      5-min Rain = 0
KFL1 221312Z 09006KT M04/M05 A2969 RMK A01 T10421046  RH  097%=      5-min Rain = 0
KFL1 221313Z 08006KT M04/M05 A2969 RMK A01 T10431046  RH  097%=      5-min Rain = 0
KFL1 221314Z 10006KT M04/M05 A297 RMK A01 T10421046  RH  097%=      5-min Rain = 0
KFL1 221315Z 09004KT M04/M05 A297 RMK A01 T10421045  RH  097%=      5-min Rain = 0
KFL1 221316Z 09006KT M04/M05 A297 RMK A01 T10421046  RH  097%=      5-min Rain = 0
KFL1 221317Z 09005KT M04/M05 A297 RMK A01 T10421046  RH  097%=      5-min Rain = 0
KFL1 221318Z 09005KT M04/M05 A297 RMK A01 T10421046  RH  097%=      5-min Rain = 0
KFL1 221319Z 09007KT M04/M05 A297 RMK A01 T10411045  RH  097%=      5-min Rain = 0
KFL1 221320Z 09005KT M04/M05 A297 RMK A01 T10421046  RH  097%=      5-min Rain = 0
KFL1 221321Z 08005KT M04/M05 A297 RMK A01 T10431046  RH  097%=      5-min Rain = 0
KFL1 221322Z 08005KT M04/M05 A297 RMK A01 T10441048  RH  097%=      5-min Rain = 0
KFL1 221323Z 07007KT M04/M05 A297 RMK A01 T10441048  RH  097%=      5-min Rain = 0
KFL1 221324Z 09005KT M04/M05 A297 RMK A01 T10421046  RH  097%=      5-min Rain = 0
KFL1 221325Z 11005KT M04/M05 A297 RMK A01 T10431048  RH  097%=      5-min Rain = 0
KFL1 221326Z 10004KT M04/M05 A297 RMK A01 T10421046  RH  097%=      5-min Rain = 0
KFL1 221327Z 11007KT M04/M05 A297 RMK A01 T10441048  RH  097%=      5-min Rain = 0
KFL1 221328Z 10007KT M04/M05 A297 RMK A01 T10431047  RH  097%=      5-min Rain = 0
KFL1 221329Z 10007KT M04/M05 A297 RMK A01 T10441048  RH  097%=      5-min Rain = 0
KFL1 221330Z 09006KT M04/M05 A297 RMK A01 T10431047  RH  097%=      5-min Rain = 0
KFL1 221331Z 10008KT M04/M05 A297 RMK A01 T10421046  RH  097%=      5-min Rain = 0
KFL1 221332Z 11008KT M04/M05 A297 RMK A01 T10431047  RH  097%=      5-min Rain = 0
KFL1 221333Z 10010KT M04/M05 A2969 RMK A01 T10431047  RH  097%=      5-min Rain = 0
KFL1 221334Z 11009KT M04/M05 A297 RMK A01 T10431047  RH  097%=      5-min Rain = 0
KFL1 221335Z 12009KT M04/M05 A297 RMK A01 T10431046  RH  097%=      5-min Rain = 0
KFL1 221336Z 12008KT M04/M05 A297 RMK A01 T10431047  RH  097%=      5-min Rain = 0
KFL1 221337Z 12006KT M04/M05 A2969 RMK A01 T10431047  RH  097%=      5-min Rain = 0
KFL1 221338Z 12008KT M04/M05 A2969 RMK A01 T10431047  RH  097%=      5-min Rain = 0
KFL1 221339Z 11006KT M04/M05 A2969 RMK A01 T10441047  RH  097%=      5-min Rain = 0
KFL1 221340Z 10007KT M04/M05 A2969 RMK A01 T10421045  RH  097%=      5-min Rain = 0
KFL1 221341Z 10009KT M04/M05 A2969 RMK A01 T10431047  RH  097%=      5-min Rain = 0
KFL1 221342Z 10007KT M04/M05 A2969 RMK A01 T10431046  RH  097%=      5-min Rain = 0
KFL1 221343Z 10007KT M04/M05 A2969 RMK A01 T10421045  RH  097%=      5-min Rain = 0
KFL1 221344Z 09008KT M04/M05 A2969 RMK A01 T10431046  RH  097%=      5-min Rain = 0
KFL1 221345Z 08009KT M04/M05 A2969 RMK A01 T10411045  RH  097%=      5-min Rain = 0
KFL1 221346Z 08009KT M04/M05 A2969 RMK A01 T10421046  RH  097%=      5-min Rain = 0
KFL1 221347Z 08008KT M04/M05 A2969 RMK A01 T10421046  RH  097%=      5-min Rain = 0
KFL1 221348Z 08008KT M04/M05 A2969 RMK A01 T10431046  RH  097%=      5-min Rain = 0
KFL1 221349Z 08008KT M04/M05 A2969 RMK A01 T10431047  RH  097%=      5-min Rain = 0
KFL1 221350Z 09007KT M04/M05 A2969 RMK A01 T10431047  RH  097%=      5-min Rain = 0
KFL1 221351Z 09005KT M04/M05 A2969 RMK A01 T10431047  RH  097%=      5-min Rain = 0
KFL1 221352Z 08008KT M04/M05 A2969 RMK A01 T10431047  RH  097%=      5-min Rain = 0
KFL1 221353Z 07008KT M04/M05 A2969 RMK A01 T10431047  RH  097%=      5-min Rain = 0
KFL1 221354Z 08008KT M04/M05 A2969 RMK A01 T10421046  RH  097%=      5-min Rain = 0
KFL1 221355Z 07006KT M04/M05 A2969 RMK A01 T10421046  RH  097%=      5-min Rain = 0
KFL1 221356Z 07008KT M05/M05 A2969 RMK A01 T10451049  RH  097%=      5-min Rain = 0
KFL1 221357Z 07005KT M04/M05 A2969 RMK A01 T10441048  RH  097%=      5-min Rain = 0
KFL1 221358Z 07006KT M04/M05 A2969 RMK A01 T10431047  RH  097%=      5-min Rain = 0
KFL1 221359Z 08007KT M04/M05 A2969 RMK A01 T10441048  RH  097%=      5-min Rain = 0
KFL1 221400Z 08006KT M05/M05 A2969 RMK A01 T10451049  RH  097%=      5-min Rain = 0
KFL1 221401Z 09007KT M04/M05 A2969 RMK A01 T10431047  RH  097%=      5-min Rain = 0
KFL1 221402Z 09007KT M04/M05 A2969 RMK A01 T10441047  RH  097%=      5-min Rain = 0
KFL1 221403Z 09007KT M04/M05 A2969 RMK A01 T10441048  RH  097%=      5-min Rain = 0
KFL1 221404Z 09007KT M04/M05 A2969 RMK A01 T10441048  RH  097%=      5-min Rain = 0
KFL1 221405Z 09008KT M04/M05 A2969 RMK A01 T10421045  RH  097%=      5-min Rain = 0
KFL1 221406Z 09007KT M04/M05 A2969 RMK A01 T10431046  RH  097%=      5-min Rain = 0
KFL1 221407Z 08008KT M04/M05 A2969 RMK A01 T10441048  RH  097%=      5-min Rain = 0
KFL1 221408Z 08007KT M05/M05 A2969 RMK A01 T10451048  RH  097%=      5-min Rain = 0
KFL1 221409Z 09008KT M04/M05 A2969 RMK A01 T10441048  RH  097%=      5-min Rain = 0
KFL1 221410Z 07008G13KT M04/M05 A2969 RMK A01 T10441047  RH  097%=      5-min Rain = 0
KFL1 221411Z 08009KT M04/M05 A2969 RMK A01 T10431047  RH  097%=      5-min Rain = 0
KFL1 221412Z 07008KT M04/M05 A2969 RMK A01 T10431047  RH  097%=      5-min Rain = 0
KFL1 221413Z 07009KT M04/M05 A2969 RMK A01 T10431047  RH  097%=      5-min Rain = 0
KFL1 221414Z 08008KT M04/M05 A2969 RMK A01 T10431047  RH  097%=      5-min Rain = 0
KFL1 221415Z 09006KT M04/M05 A2969 RMK A01 T10421046  RH  097%=      5-min Rain = 0
KFL1 221416Z 08007KT M04/M05 A2969 RMK A01 T10421046  RH  097%=      5-min Rain = 0
KFL1 221417Z 08009KT M04/M05 A2969 RMK A01 T10421046  RH  097%=      5-min Rain = 0
KFL1 221418Z 08008KT M04/M05 A2969 RMK A01 T10441048  RH  097%=      5-min Rain = 0
KFL1 221419Z 09007KT M04/M05 A2969 RMK A01 T10431047  RH  097%=      5-min Rain = 0
KFL1 221420Z 07006KT M04/M05 A2969 RMK A01 T10431047  RH  097%=      5-min Rain = 0
KFL1 221421Z 07005G10KT M04/M05 A2969 RMK A01 T10421045  RH  097%=      5-min Rain = 0
KFL1 221422Z 08008KT M04/M05 A2969 RMK A01 T10431046  RH  097%=      5-min Rain = 0
KFL1 221423Z 09009KT M04/M05 A2969 RMK A01 T10431047  RH  097%=      5-min Rain = 0
KFL1 221424Z 08006KT M04/M05 A2969 RMK A01 T10431047  RH  097%=      5-min Rain = 0
KFL1 221425Z 08007KT M04/M05 A2969 RMK A01 T10431047  RH  097%=      5-min Rain = 0
KFL1 221426Z 10007KT M04/M05 A2969 RMK A01 T10421045  RH  097%=      5-min Rain = 0
KFL1 221427Z 10007KT M04/M05 A2969 RMK A01 T10411045  RH  097%=      5-min Rain = 0
KFL1 221428Z 09007KT M04/M05 A2969 RMK A01 T10421046  RH  097%=      5-min Rain = 0
KFL1 221429Z 08008KT M04/M05 A2969 RMK A01 T10421046  RH  097%=      5-min Rain = 0
KFL1 221430Z 08007KT M04/M05 A2969 RMK A01 T10421046  RH  097%=      5-min Rain = 0
KFL1 221431Z 09006KT M04/M05 A2969 RMK A01 T10421045  RH  097%=      5-min Rain = 0
KFL1 221432Z 11005KT M04/M04 A2969 RMK A01 T10411044  RH  097%=      5-min Rain = 0
KFL1 221433Z 10006KT M04/M05 A2969 RMK A01 T10421046  RH  097%=      5-min Rain = 0
KFL1 221434Z 08007KT M04/M05 A2969 RMK A01 T10411045  RH  097%=      5-min Rain = 0
KFL1 221435Z 08007KT M04/M04 A2969 RMK A01 T10401044  RH  097%=      5-min Rain = 0
KFL1 221436Z 09006KT M04/M05 A2969 RMK A01 T10411045  RH  097%=      5-min Rain = 0
KFL1 221437Z 09007KT M04/M05 A2969 RMK A01 T10411045  RH  097%=      5-min Rain = 0
KFL1 221438Z 08009KT M04/M04 A297 RMK A01 T10391043  RH  097%=      5-min Rain = 0
KFL1 221439Z 10009KT M04/M04 A297 RMK A01 T10401044  RH  097%=      5-min Rain = 0
KFL1 221440Z 11006KT M04/M04 A297 RMK A01 T10401044  RH  097%=      5-min Rain = 0
KFL1 221441Z 09008KT M04/M04 A297 RMK A01 T10391043  RH  097%=      5-min Rain = 0
KFL1 221442Z 09007KT M04/M04 A297 RMK A01 T10381042  RH  097%=      5-min Rain = 0
KFL1 221443Z 09007KT M04/M04 A297 RMK A01 T10401043  RH  097%=      5-min Rain = 0
KFL1 221444Z 09006KT M04/M04 A297 RMK A01 T10401044  RH  097%=      5-min Rain = 0
KFL1 221445Z 09005KT M04/M04 A297 RMK A01 T10391043  RH  097%=      5-min Rain = 0
KFL1 221446Z 09007KT M04/M04 A297 RMK A01 T10381042  RH  097%=      5-min Rain = 0
KFL1 221447Z 09006KT M04/M04 A297 RMK A01 T10401043  RH  097%=      5-min Rain = 0
KFL1 221448Z 09007KT M04/M04 A297 RMK A01 T10381042  RH  097%=      5-min Rain = 0
KFL1 221449Z 09005KT M04/M04 A297 RMK A01 T10391042  RH  097%=      5-min Rain = 0
KFL1 221450Z 10005KT M04/M04 A297 RMK A01 T10391042  RH  097%=      5-min Rain = 0
KFL1 221451Z 11005KT M04/M04 A297 RMK A01 T10391043  RH  097%=      5-min Rain = 0
KFL1 221452Z 10005KT M04/M04 A297 RMK A01 T10391043  RH  097%=      5-min Rain = 0
KFL1 221453Z 10006KT M04/M04 A297 RMK A01 T10381042  RH  097%=      5-min Rain = 0
KFL1 221454Z 10005KT M04/M04 A297 RMK A01 T10391043  RH  097%=      5-min Rain = 0
KFL1 221455Z 09007KT M04/M04 A297 RMK A01 T10391043  RH  097%=      5-min Rain = 0
KFL1 221456Z 09006KT M04/M04 A297 RMK A01 T10401044  RH  097%=      5-min Rain = 0
KFL1 221457Z 09006KT M04/M04 A297 RMK A01 T10391043  RH  097%=      5-min Rain = 0
KFL1 221458Z 10006KT M04/M04 A297 RMK A01 T10391043  RH  097%=      5-min Rain = 0
KFL1 221459Z 09006KT M04/M04 A297 RMK A01 T10401044  RH  097%=      5-min Rain = 0
KFL1 221500Z 09005KT M04/M04 A297 RMK A01 T10371041  RH  097%=      5-min Rain = 0
KFL1 221501Z 10004KT M04/M04 A297 RMK A01 T10381042  RH  097%=      5-min Rain = 0
KFL1 221502Z 09005KT M04/M04 A297 RMK A01 T10391043  RH  097%=      5-min Rain = 0
KFL1 221503Z 07006KT M04/M04 A297 RMK A01 T10391043  RH  097%=      5-min Rain = 0
KFL1 221504Z 08005KT M04/M04 A297 RMK A01 T10391043  RH  097%=      5-min Rain = 0
KFL1 221505Z 09005KT M04/M04 A2971 RMK A01 T10401044  RH  097%=      5-min Rain = 0
KFL1 221506Z 08005KT M04/M04 A2971 RMK A01 T10401044  RH  097%=      5-min Rain = 0
KFL1 221507Z 09003KT M04/M04 A2971 RMK A01 T10381042  RH  097%=      5-min Rain = 0
KFL1 221508Z 10003KT M04/M04 A2971 RMK A01 T10391043  RH  097%=      5-min Rain = 0
KFL1 221509Z 09007KT M04/M04 A2971 RMK A01 T10391043  RH  097%=      5-min Rain = 0
KFL1 221510Z 09006KT M04/M04 A2971 RMK A01 T10391043  RH  097%=      5-min Rain = 0
KFL1 221511Z 11006KT M04/M04 A2971 RMK A01 T10381042  RH  097%=      5-min Rain = 0
KFL1 221512Z 12008KT M04/M04 A2971 RMK A01 T10381042  RH  097%=      5-min Rain = 0
KFL1 221513Z 11007KT M04/M04 A2971 RMK A01 T10381042  RH  097%=      5-min Rain = 0
KFL1 221514Z 10004KT M04/M04 A2971 RMK A01 T10391043  RH  097%=      5-min Rain = 0
KFL1 221515Z 10005KT M04/M04 A2971 RMK A01 T10391043  RH  097%=      5-min Rain = 0
KFL1 221516Z 10006KT M04/M04 A2971 RMK A01 T10391043  RH  097%=      5-min Rain = 0
KFL1 221517Z 10007KT M04/M04 A2971 RMK A01 T10381042  RH  097%=      5-min Rain = 0
KFL1 221518Z 09005KT M04/M04 A2971 RMK A01 T10371041  RH  097%=      5-min Rain = 0
KFL1 221519Z 10006KT M04/M04 A2971 RMK A01 T10371041  RH  097%=      5-min Rain = 0
KFL1 221520Z 11006KT M04/M04 A2971 RMK A01 T10371041  RH  097%=      5-min Rain = 0
KFL1 221521Z 13005KT M04/M04 A2972 RMK A01 T10381041  RH  097%=      5-min Rain = 0
KFL1 221522Z 13004KT M04/M04 A2972 RMK A01 T10361040  RH  097%=      5-min Rain = 0
KFL1 221523Z 10004KT M04/M04 A2972 RMK A01 T10371041  RH  097%=      5-min Rain = 0
KFL1 221524Z 09005KT M04/M04 A2971 RMK A01 T10361039  RH  097%=      5-min Rain = 0
KFL1 221525Z 09005KT M04/M04 A2971 RMK A01 T10361040  RH  097%=      5-min Rain = 0
KFL1 221526Z 09006KT M04/M04 A2971 RMK A01 T10361040  RH  097%=      5-min Rain = 0
KFL1 221527Z 09006KT M04/M04 A2971 RMK A01 T10361039  RH  097%=      5-min Rain = 0
KFL1 221528Z 10005KT M04/M04 A2971 RMK A01 T10371040  RH  097%=      5-min Rain = 0
KFL1 221529Z 10006KT M04/M04 A2971 RMK A01 T10351039  RH  097%=      5-min Rain = 0
KFL1 221530Z 11005KT M04/M04 A2972 RMK A01 T10351039  RH  097%=      5-min Rain = 0
KFL1 221531Z 10005KT M03/M04 A2971 RMK A01 T10341037  RH  097%=      5-min Rain = 0
KFL1 221532Z 10004KT M03/M04 A2971 RMK A01 T10331037  RH  097%=      5-min Rain = 0
KFL1 221533Z 10004KT M03/M04 A2971 RMK A01 T10331037  RH  097%=      5-min Rain = 0
KFL1 221534Z 10005KT M03/M04 A2971 RMK A01 T10331037  RH  097%=      5-min Rain = 0
KFL1 221535Z 10004KT M03/M04 A2971 RMK A01 T10331037  RH  097%=      5-min Rain = 0
KFL1 221536Z 09006KT M03/M04 A2971 RMK A01 T10321036  RH  097%=      5-min Rain = 0
KFL1 221537Z 10006KT M03/M04 A2971 RMK A01 T10311035  RH  097%=      5-min Rain = 0
KFL1 221538Z 09006KT M03/M03 A2971 RMK A01 T10301034  RH  097%=      5-min Rain = 0
KFL1 221539Z 09004KT M03/M03 A2971 RMK A01 T10301033  RH  097%=      5-min Rain = 0
KFL1 221540Z 09006KT M03/M03 A2972 RMK A01 T10291033  RH  097%=      5-min Rain = 0
KFL1 221541Z 09005KT M03/M03 A2972 RMK A01 T10301033  RH  097%=      5-min Rain = 0
KFL1 221542Z 10005KT M03/M03 A2972 RMK A01 T10271031  RH  097%=      5-min Rain = 0
KFL1 221543Z 09004KT M03/M03 A2972 RMK A01 T10271031  RH  097%=      5-min Rain = 0
KFL1 221544Z 09004KT M03/M03 A2972 RMK A01 T10271031  RH  097%=      5-min Rain = 0
KFL1 221545Z 08004G9KT M03/M03 A2972 RMK A01 T10281032  RH  097%=      5-min Rain = 0
KFL1 221546Z 10005KT M03/M03 A2972 RMK A01 T10271031  RH  097%=      5-min Rain = 0
KFL1 221547Z 08005KT M03/M03 A2972 RMK A01 T10271031  RH  097%=      5-min Rain = 0
KFL1 221548Z 08005KT M03/M03 A2972 RMK A01 T10271030  RH  097%=      5-min Rain = 0
KFL1 221549Z 09006KT M03/M03 A2972 RMK A01 T10271031  RH  097%=      5-min Rain = 0
KFL1 221550Z 09004KT M03/M03 A2972 RMK A01 T10281032  RH  097%=      5-min Rain = 0
KFL1 221551Z 10005KT M03/M03 A2972 RMK A01 T10271031  RH  097%=      5-min Rain = 0
KFL1 221552Z 08005KT M03/M03 A2972 RMK A01 T10271031  RH  097%=      5-min Rain = 0
KFL1 221553Z 08004KT M03/M03 A2972 RMK A01 T10271031  RH  097%=      5-min Rain = 0
KFL1 221554Z 07005KT M03/M03 A2972 RMK A01 T10291033  RH  097%=      5-min Rain = 0
KFL1 221555Z 08004KT M03/M03 A2972 RMK A01 T10291034  RH  097%=      5-min Rain = 0
KFL1 221556Z 08004KT M03/M03 A2972 RMK A01 T10301034  RH  097%=      5-min Rain = 0
KFL1 221557Z 08004KT M03/M03 A2972 RMK A01 T10291033  RH  097%=      5-min Rain = 0
KFL1 221558Z 09004KT M03/M03 A2972 RMK A01 T10291034  RH  097%=      5-min Rain = 0
KFL1 221559Z 10005KT M03/M03 A2972 RMK A01 T10291033  RH  097%=      5-min Rain = 0
KFL1 221600Z 08006KT M03/M03 A2972 RMK A01 T10301034  RH  097%=      5-min Rain = 0
KFL1 221601Z 09006KT M03/M03 A2972 RMK A01 T10291033  RH  097%=      5-min Rain = 0
KFL1 221602Z 08005KT M03/M03 A2972 RMK A01 T10291033  RH  097%=      5-min Rain = 0
KFL1 221603Z 08005KT M03/M03 A2972 RMK A01 T10301034  RH  097%=      5-min Rain = 0
KFL1 221604Z 07005KT M03/M03 A2972 RMK A01 T10291033  RH  097%=      5-min Rain = 0
KFL1 221605Z 07004KT M03/M03 A2972 RMK A01 T10301034  RH  097%=      5-min Rain = 0
KFL1 221606Z 08005KT M03/M03 A2972 RMK A01 T10291033  RH  097%=      5-min Rain = 0
KFL1 221607Z 08004KT M03/M04 A2972 RMK A01 T10311035  RH  097%=      5-min Rain = 0
KFL1 221608Z 09005KT M03/M03 A2972 RMK A01 T10291033  RH  097%=      5-min Rain = 0
KFL1 221609Z 10006KT M03/M03 A2972 RMK A01 T10291034  RH  097%=      5-min Rain = 0
KFL1 221610Z 09004KT M03/M03 A2972 RMK A01 T10271031  RH  097%=      5-min Rain = 0
KFL1 221611Z 09004KT M03/M03 A2972 RMK A01 T10281032  RH  097%=      5-min Rain = 0
KFL1 221612Z 08003KT M03/M03 A2972 RMK A01 T10281032  RH  097%=      5-min Rain = 0
KFL1 221613Z 07004KT M03/M03 A2971 RMK A01 T10271031  RH  097%=      5-min Rain = 0
KFL1 221614Z 08005KT M03/M03 A2971 RMK A01 T10261030  RH  097%=      5-min Rain = 0
KFL1 221615Z 08005KT M03/M03 A2971 RMK A01 T10271031  RH  097%=      5-min Rain = 0
KFL1 221616Z 08004KT M03/M03 A2971 RMK A01 T10271031  RH  097%=      5-min Rain = 0
KFL1 221617Z 08004KT M03/M03 A2971 RMK A01 T10271032  RH  097%=      5-min Rain = 0
KFL1 221618Z 08005KT M03/M03 A2971 RMK A01 T10251029  RH  097%=      5-min Rain = 0
KFL1 221619Z 09006KT M03/M03 A2971 RMK A01 T10261031  RH  097%=      5-min Rain = 0
KFL1 221620Z 09005KT M03/M03 A2971 RMK A01 T10271031  RH  097%=      5-min Rain = 0
KFL1 221621Z 08005KT M03/M03 A2971 RMK A01 T10261031  RH  097%=      5-min Rain = 0
KFL1 221622Z 07004KT M03/M03 A2971 RMK A01 T10251029  RH  097%=      5-min Rain = 0
KFL1 221623Z 09004KT M03/M03 A2971 RMK A01 T10261030  RH  097%=      5-min Rain = 0
KFL1 221624Z 09004KT M03/M03 A2971 RMK A01 T10251029  RH  097%=      5-min Rain = 0
KFL1 221625Z 09005KT M03/M03 A2971 RMK A01 T10261030  RH  097%=      5-min Rain = 0
KFL1 221626Z 09006KT M03/M03 A2971 RMK A01 T10251030  RH  097%=      5-min Rain = 0
KFL1 221627Z 09005KT M03/M03 A2971 RMK A01 T10251029  RH  097%=      5-min Rain = 0
KFL1 221628Z 09005KT M02/M03 A2972 RMK A01 T10241028  RH  097%=      5-min Rain = 0
KFL1 221629Z 09005KT M02/M03 A2972 RMK A01 T10241028  RH  097%=      5-min Rain = 0
KFL1 221630Z 09004KT M03/M03 A2971 RMK A01 T10251029  RH  097%=      5-min Rain = 0
KFL1 221631Z 08005KT M03/M03 A2971 RMK A01 T10261030  RH  097%=      5-min Rain = 0
KFL1 221632Z 08004KT M03/M03 A2972 RMK A01 T10251029  RH  097%=      5-min Rain = 0
KFL1 221633Z 08005KT M03/M03 A2971 RMK A01 T10251029  RH  097%=      5-min Rain = 0
KFL1 221634Z 08004KT M03/M03 A2971 RMK A01 T10261031  RH  097%=      5-min Rain = 0
KFL1 221635Z 07004KT M03/M03 A2971 RMK A01 T10261030  RH  097%=      5-min Rain = 0
KFL1 221636Z 09004KT M03/M03 A2971 RMK A01 T10261030  RH  097%=      5-min Rain = 0
KFL1 221637Z 09003KT M03/M03 A2971 RMK A01 T10271031  RH  097%=      5-min Rain = 0
KFL1 221638Z 08002KT M03/M03 A2971 RMK A01 T10271032  RH  097%=      5-min Rain = 0
KFL1 221639Z 07004KT M03/M03 A2971 RMK A01 T10281033  RH  097%=      5-min Rain = 0
KFL1 221640Z 07004KT M03/M03 A2971 RMK A01 T10291034  RH  097%=      5-min Rain = 0
KFL1 221641Z 05003KT M03/M03 A2971 RMK A01 T10291034  RH  097%=      5-min Rain = 0
KFL1 221642Z 07004KT M03/M03 A2971 RMK A01 T10291034  RH  097%=      5-min Rain = 0
KFL1 221643Z 09004KT M03/M03 A2971 RMK A01 T10281033  RH  097%=      5-min Rain = 0
KFL1 221644Z 07002KT M03/M03 A2971 RMK A01 T10281033  RH  097%=      5-min Rain = 0
KFL1 221645Z 06003KT M03/M03 A2971 RMK A01 T10291034  RH  097%=      5-min Rain = 0
KFL1 221646Z 07003KT M03/M03 A2971 RMK A01 T10291034  RH  097%=      5-min Rain = 0
KFL1 221647Z 08003KT M03/M03 A2971 RMK A01 T10291033  RH  097%=      5-min Rain = 0
KFL1 221648Z 08003KT M03/M03 A2971 RMK A01 T10281033  RH  097%=      5-min Rain = 0
KFL1 221649Z 09004KT M03/M03 A2971 RMK A01 T10281033  RH  097%=      5-min Rain = 0
KFL1 221650Z 08003KT M03/M03 A2971 RMK A01 T10281033  RH  097%=      5-min Rain = 0
KFL1 221651Z 08002KT M03/M03 A2971 RMK A01 T10271031  RH  097%=      5-min Rain = 0
KFL1 221652Z 07002KT M03/M03 A2971 RMK A01 T10261030  RH  097%=      5-min Rain = 0
KFL1 221653Z 08001KT M03/M03 A2971 RMK A01 T10271030  RH  097%=      5-min Rain = 0
KFL1 221654Z 08002KT M03/M03 A2971 RMK A01 T10261030  RH  097%=      5-min Rain = 0
KFL1 221655Z 07002KT M03/M03 A2971 RMK A01 T10271030  RH  097%=      5-min Rain = 0
KFL1 221656Z 09001KT M03/M03 A2971 RMK A01 T10261030  RH  097%=      5-min Rain = 0
KFL1 221657Z 09001KT M03/M03 A2971 RMK A01 T10251029  RH  097%=      5-min Rain = 0
KFL1 221658Z 10001KT M03/M03 A2971 RMK A01 T10251028  RH  097%=      5-min Rain = 0
KFL1 221659Z 08002KT M02/M03 A2971 RMK A01 T10241028  RH  097%=      5-min Rain = 0
KFL1 221700Z 10003KT M02/M03 A2971 RMK A01 T10241028  RH  097%=      5-min Rain = 0
KFL1 221701Z 08003KT M02/M03 A2971 RMK A01 T10221026  RH  098%=      5-min Rain = 0
KFL1 221702Z 07004KT M02/M03 A2971 RMK A01 T10231027  RH  097%=      5-min Rain = 0
KFL1 221703Z 06003KT M02/M03 A297 RMK A01 T10221026  RH  097%=      5-min Rain = 0
KFL1 221704Z 06002KT M02/M03 A297 RMK A01 T10231026  RH  097%=      5-min Rain = 0
KFL1 221705Z 07003KT M02/M03 A297 RMK A01 T10241028  RH  097%=      5-min Rain = 0
KFL1 221706Z 07003KT M03/M03 A2971 RMK A01 T10251029  RH  097%=      5-min Rain = 0
KFL1 221707Z 07004KT M03/M03 A2971 RMK A01 T10251029  RH  097%=      5-min Rain = 0
KFL1 221708Z 08005KT M03/M03 A2971 RMK A01 T10251030  RH  097%=      5-min Rain = 0
KFL1 221709Z 08005KT M03/M03 A297 RMK A01 T10271032  RH  096%=      5-min Rain = 0
KFL1 221710Z 07004KT M03/M03 A297 RMK A01 T10261030  RH  097%=      5-min Rain = 0
KFL1 221711Z 07005KT M03/M03 A297 RMK A01 T10251030  RH  097%=      5-min Rain = 0
KFL1 221712Z 08006KT M03/M03 A2971 RMK A01 T10271031  RH  097%=      5-min Rain = 0
KFL1 221713Z 07005KT M03/M03 A2971 RMK A01 T10261031  RH  097%=      5-min Rain = 0
KFL1 221714Z 07004KT M03/M03 A297 RMK A01 T10261030  RH  097%=      5-min Rain = 0
KFL1 221715Z 08005KT M03/M03 A297 RMK A01 T10271031  RH  097%=      5-min Rain = 0
KFL1 221716Z 08005KT M03/M03 A2971 RMK A01 T10251029  RH  097%=      5-min Rain = 0
KFL1 221717Z 09005KT M03/M03 A2971 RMK A01 T10261030  RH  097%=      5-min Rain = 0
KFL1 221718Z 10005KT M03/M03 A2971 RMK A01 T10251029  RH  097%=      5-min Rain = 0
KFL1 221719Z 09006KT M02/M03 A2971 RMK A01 T10241028  RH  097%=      5-min Rain = 0
KFL1 221720Z 10006KT M02/M03 A2971 RMK A01 T10231027  RH  097%=      5-min Rain = 0
KFL1 221721Z 09005KT M02/M03 A2971 RMK A01 T10241028  RH  097%=      5-min Rain = 0
KFL1 221722Z 10003KT M02/M03 A2971 RMK A01 T10231027  RH  097%=      5-min Rain = 0
KFL1 221723Z 10005KT M02/M03 A2971 RMK A01 T10231027  RH  097%=      5-min Rain = 0
KFL1 221724Z 11003KT M02/M03 A2971 RMK A01 T10231027  RH  097%=      5-min Rain = 0
KFL1 221725Z 09003KT M02/M03 A2971 RMK A01 T10221026  RH  097%=      5-min Rain = 0
KFL1 221726Z 09003KT M02/M03 A2971 RMK A01 T10211025  RH  097%=      5-min Rain = 0
KFL1 221727Z 10003KT M02/M03 A2971 RMK A01 T10221026  RH  097%=      5-min Rain = 0
KFL1 221728Z 11003KT M02/M03 A2971 RMK A01 T10211025  RH  097%=      5-min Rain = 0
KFL1 221729Z 12002KT M02/M03 A2971 RMK A01 T10211025  RH  097%=      5-min Rain = 0
KFL1 221730Z 12002KT M02/M03 A2971 RMK A01 T10211025  RH  097%=      5-min Rain = 0
KFL1 221731Z 12002KT M02/M02 A2971 RMK A01 T10181021  RH  098%=      5-min Rain = 0
KFL1 221732Z 12001KT M02/M02 A2971 RMK A01 T10181022  RH  097%=      5-min Rain = 0
KFL1 221733Z 08003KT M02/M02 A2971 RMK A01 T10191023  RH  097%=      5-min Rain = 0
KFL1 221734Z 10003KT M02/M02 A2971 RMK A01 T10181022  RH  097%=      5-min Rain = 0
KFL1 221735Z 10003KT M02/M02 A2971 RMK A01 T10181022  RH  097%=      5-min Rain = 0
KFL1 221736Z 11003KT M02/M02 A2971 RMK A01 T10181022  RH  097%=      5-min Rain = 0
KFL1 221737Z 12003KT M02/M02 A2971 RMK A01 T10171021  RH  097%=      5-min Rain = 0
KFL1 221738Z 11001KT M02/M02 A2971 RMK A01 T10161019  RH  098%=      5-min Rain = 0
KFL1 221739Z 10001KT M02/M02 A2971 RMK A01 T10161019  RH  097%=      5-min Rain = 0
KFL1 221740Z 07001KT M02/M02 A2971 RMK A01 T10151018  RH  098%=      5-min Rain = 0
KFL1 221741Z 10002KT M02/M02 A2971 RMK A01 T10161020  RH  097%=      5-min Rain = 0
KFL1 221742Z 11002KT M02/M02 A2971 RMK A01 T10151019  RH  097%=      5-min Rain = 0
KFL1 221743Z 14002KT M02/M02 A2971 RMK A01 T10151019  RH  097%=      5-min Rain = 0
KFL1 221744Z 13001KT M01/M02 A2971 RMK A01 T10141018  RH  097%=      5-min Rain = 0
KFL1 221745Z 13002KT M02/M02 A2971 RMK A01 T10161020  RH  097%=      5-min Rain = 0
KFL1 221746Z 12002KT M02/M02 A2971 RMK A01 T10161019  RH  097%=      5-min Rain = 0
KFL1 221747Z 11003KT M02/M02 A2971 RMK A01 T10151019  RH  097%=      5-min Rain = 0
KFL1 221748Z 12002KT M02/M02 A2971 RMK A01 T10151019  RH  097%=      5-min Rain = 0
KFL1 221749Z 16001KT M02/M02 A2971 RMK A01 T10151019  RH  097%=      5-min Rain = 0
KFL1 221750Z 16003KT M02/M02 A2971 RMK A01 T10151019  RH  097%=      5-min Rain = 0
KFL1 221751Z 16002KT M02/M02 A2971 RMK A01 T10151019  RH  097%=      5-min Rain = 0
KFL1 221752Z 16004KT M02/M02 A2972 RMK A01 T10151019  RH  097%=      5-min Rain = 0
KFL1 221753Z 16002KT M02/M02 A2972 RMK A01 T10161020  RH  097%=      5-min Rain = 0
KFL1 221754Z 18002KT M02/M02 A2972 RMK A01 T10161021  RH  097%=      5-min Rain = 0
KFL1 221755Z 16003KT M02/M02 A2972 RMK A01 T10151020  RH  097%=      5-min Rain = 0
KFL1 221756Z 17002KT M02/M02 A2972 RMK A01 T10161020  RH  097%=      5-min Rain = 0
KFL1 221757Z 16002KT M02/M02 A2971 RMK A01 T10161020  RH  097%=      5-min Rain = 0
KFL1 221758Z 14002KT M01/M02 A2971 RMK A01 T10141019  RH  097%=      5-min Rain = 0
KFL1 221759Z 14002KT M01/M02 A2971 RMK A01 T10131017  RH  097%=      5-min Rain = 0
KFL1 221800Z 13002KT M01/M02 A2971 RMK A01 T10131017  RH  097%=      5-min Rain = 0
KFL1 221801Z 13002KT M01/M02 A2971 RMK A01 T10121016  RH  097%=      5-min Rain = 0
KFL1 221802Z 13003KT M01/M02 A2971 RMK A01 T10111016  RH  097%=      5-min Rain = 0
KFL1 221803Z 14003KT M01/M02 A2971 RMK A01 T10111015  RH  097%=      5-min Rain = 0
KFL1 221804Z 14003KT M01/M02 A2971 RMK A01 T10101015  RH  097%=      5-min Rain = 0
KFL1 221805Z 14003KT M01/M02 A2972 RMK A01 T10111015  RH  097%=      5-min Rain = 0
KFL1 221806Z 15004KT M01/M01 A2972 RMK A01 T10091013  RH  097%=      5-min Rain = 0
KFL1 221807Z 16003KT M01/M01 A2972 RMK A01 T10101014  RH  097%=      5-min Rain = 0
KFL1 221808Z 16003KT M01/M01 A2972 RMK A01 T10091013  RH  097%=      5-min Rain = 0
KFL1 221809Z 16003KT M01/M01 A2972 RMK A01 T10091014  RH  097%=      5-min Rain = 0
KFL1 221810Z 17003KT M01/M01 A2972 RMK A01 T10081013  RH  097%=      5-min Rain = 0
KFL1 221811Z 15002KT M01/M01 A2972 RMK A01 T10091014  RH  097%=      5-min Rain = 0
KFL1 221812Z 16004KT M01/M01 A2972 RMK A01 T10081013  RH  097%=      5-min Rain = 0
KFL1 221813Z 16004KT M01/M01 A2972 RMK A01 T10061010  RH  097%=      5-min Rain = 0
KFL1 221814Z 16005KT M01/M01 A2972 RMK A01 T10071012  RH  097%=      5-min Rain = 0
KFL1 221815Z 16005KT M01/M01 A2972 RMK A01 T10071012  RH  097%=      5-min Rain = 0
KFL1 221816Z 16005KT M01/M01 A2972 RMK A01 T10061011  RH  097%=      5-min Rain = 0
KFL1 221817Z 16005KT M01/M01 A2972 RMK A01 T10051010  RH  097%=      5-min Rain = 0
KFL1 221818Z 16004KT M01/M01 A2972 RMK A01 T10061011  RH  097%=      5-min Rain = 0
KFL1 221819Z 16004KT M00/M01 A2972 RMK A01 T10041009  RH  097%=      5-min Rain = 0
KFL1 221820Z 16003KT M01/M01 A2972 RMK A01 T10051010  RH  097%=      5-min Rain = 0
KFL1 221821Z 16003KT M01/M01 A2972 RMK A01 T10051010  RH  097%=      5-min Rain = 0
KFL1 221822Z 15004KT M01/M01 A2972 RMK A01 T10051010  RH  096%=      5-min Rain = 0
KFL1 221823Z 16004KT M01/M01 A2971 RMK A01 T10061011  RH  096%=      5-min Rain = 0
KFL1 221824Z 16004KT M01/M01 A2971 RMK A01 T10061011  RH  096%=      5-min Rain = 0
KFL1 221825Z 14004KT M01/M01 A2971 RMK A01 T10051010  RH  096%=      5-min Rain = 0
KFL1 221826Z 15002KT M01/M01 A2971 RMK A01 T10051011  RH  096%=      5-min Rain = 0
KFL1 221827Z 14002KT M01/M01 A2971 RMK A01 T10051010  RH  096%=      5-min Rain = 0
KFL1 221828Z 15003KT M01/M01 A2971 RMK A01 T10051011  RH  096%=      5-min Rain = 0
KFL1 221829Z 15003KT M00/M01 A2971 RMK A01 T10041009  RH  096%=      5-min Rain = 0
KFL1 221830Z 14003KT M01/M01 A2971 RMK A01 T10051010  RH  096%=      5-min Rain = 0
KFL1 221831Z 14002KT M00/M01 A2971 RMK A01 T10041009  RH  096%=      5-min Rain = 0
KFL1 221832Z 16001KT M00/M01 A2971 RMK A01 T10021008  RH  096%=      5-min Rain = 0
KFL1 221833Z 15001KT M00/M01 A2971 RMK A01 T10011006  RH  096%=      5-min Rain = 0
KFL1 221834Z 15001KT 00/01 A2971 RMK A01 T000000-5  RH  097%=      5-min Rain = 0
KFL1 221835Z 15001KT 00/M00 A2971 RMK A01 T00021003  RH  097%=      5-min Rain = 0
KFL1 221836Z 22001KT 00/M00 A2971 RMK A01 T00021003  RH  097%=      5-min Rain = 0
KFL1 221837Z 21002KT 00/M00 A2971 RMK A01 T00031002  RH  097%=      5-min Rain = 0
KFL1 221838Z 21003KT 00/M00 A2971 RMK A01 T00021002  RH  097%=      5-min Rain = 0
KFL1 221839Z 15001KT 00/M01 A297 RMK A01 T00011005  RH  096%=      5-min Rain = 0
KFL1 221840Z 22003KT 00/M00 A297 RMK A01 T00021003  RH  096%=      5-min Rain = 0
KFL1 221841Z 22002KT 00/M00 A297 RMK A01 T00011004  RH  096%=      5-min Rain = 0
KFL1 221842Z 21002KT 00/M00 A297 RMK A01 T00021004  RH  096%=      5-min Rain = 0
KFL1 221843Z 23003KT 00/01 A297 RMK A01 T000000-5  RH  096%=      5-min Rain = 0
KFL1 221844Z 23004KT M00/M01 A297 RMK A01 T10011008  RH  096%=      5-min Rain = 0
KFL1 221845Z 22004KT M00/M01 A297 RMK A01 T10041011  RH  095%=      5-min Rain = 0
KFL1 221846Z 21004KT M01/M01 A297 RMK A01 T10051013  RH  094%=      5-min Rain = 0
KFL1 221847Z 22004KT M00/M01 A297 RMK A01 T10041012  RH  094%=      5-min Rain = 0
KFL1 221848Z 22003KT M01/M01 A297 RMK A01 T10051013  RH  094%=      5-min Rain = 0
KFL1 221849Z 21003KT M01/M01 A297 RMK A01 T10051014  RH  094%=      5-min Rain = 0
KFL1 221850Z 20002KT M01/M02 A297 RMK A01 T10061015  RH  094%=      5-min Rain = 0
KFL1 221851Z 21002KT M00/M01 A297 RMK A01 T10041012  RH  094%=      5-min Rain = 0
KFL1 221852Z 20002KT M00/M01 A297 RMK A01 T10031011  RH  095%=      5-min Rain = 0
KFL1 221853Z 24002KT M00/M01 A297 RMK A01 T10021009  RH  095%=      5-min Rain = 0
KFL1 221854Z 22002KT M00/M01 A297 RMK A01 T10011007  RH  096%=      5-min Rain = 0
KFL1 221855Z 20001KT 00/01 A297 RMK A01 T000000-6  RH  096%=      5-min Rain = 0
KFL1 221856Z 20003KT 00/M01 A297 RMK A01 T00011005  RH  096%=      5-min Rain = 0
KFL1 221857Z 21001KT 00/M01 A297 RMK A01 T00021005  RH  096%=      5-min Rain = 0
KFL1 221858Z 19002KT 00/M01 A297 RMK A01 T00011006  RH  095%=      5-min Rain = 0
KFL1 221859Z 20003KT 00/M01 A297 RMK A01 T00011006  RH  095%=      5-min Rain = 0
KFL1 221900Z 21002KT 00/M01 A297 RMK A01 T00011006  RH  095%=      5-min Rain = 0
KFL1 221901Z 21003KT 00/01 A297 RMK A01 T000000-7  RH  095%=      5-min Rain = 0
KFL1 221902Z 21003KT 00/01 A297 RMK A01 T00-000-8  RH  094%=      5-min Rain = 0
KFL1 221903Z 21003KT M00/M01 A297 RMK A01 T10021010  RH  094%=      5-min Rain = 0
KFL1 221904Z 22003KT 00/01 A297 RMK A01 T000000-8  RH  094%=      5-min Rain = 0
KFL1 221905Z 21003KT M00/M01 A297 RMK A01 T10011010  RH  094%=      5-min Rain = 0
KFL1 221906Z 20004KT 00/01 A297 RMK A01 T00-000-8  RH  095%=      5-min Rain = 0
KFL1 221907Z 17003KT 00/M01 A297 RMK A01 T00011006  RH  095%=      5-min Rain = 0
KFL1 221908Z 19003KT 00/M01 A297 RMK A01 T00011006  RH  095%=      5-min Rain = 0
KFL1 221909Z 17002KT 00/M01 A297 RMK A01 T00011006  RH  095%=      5-min Rain = 0
KFL1 221910Z 16002KT 00/M01 A297 RMK A01 T00011005  RH  095%=      5-min Rain = 0
KFL1 221911Z 17003KT 00/M01 A297 RMK A01 T00021005  RH  095%=      5-min Rain = 0
KFL1 221912Z 19003KT 00/M00 A297 RMK A01 T00021004  RH  096%=      5-min Rain = 0
KFL1 221913Z 18003KT 00/M00 A297 RMK A01 T00021004  RH  096%=      5-min Rain = 0
KFL1 221914Z 16003KT 00/M00 A297 RMK A01 T00021004  RH  096%=      5-min Rain = 0
KFL1 221915Z 15003KT 00/M00 A297 RMK A01 T00031004  RH  095%=      5-min Rain = 0
KFL1 221916Z 15003KT 00/M00 A297 RMK A01 T00031004  RH  095%=      5-min Rain = 0
KFL1 221917Z 16003KT 00/M00 A297 RMK A01 T00031004  RH  095%=      5-min Rain = 0
KFL1 221918Z 16003KT 00/M00 A297 RMK A01 T00031004  RH  095%=      5-min Rain = 0
KFL1 221919Z 16003KT 00/M01 A297 RMK A01 T00021005  RH  095%=      5-min Rain = 0
KFL1 221920Z 16002KT 00/M01 A297 RMK A01 T00021005  RH  095%=      5-min Rain = 0
KFL1 221921Z 15002KT 00/M01 A297 RMK A01 T00011006  RH  095%=      5-min Rain = 0
KFL1 221922Z 15002KT 00/M01 A297 RMK A01 T00021006  RH  095%=      5-min Rain = 0
KFL1 221923Z 15002KT 00/01 A297 RMK A01 T000000-8  RH  094%=      5-min Rain = 0
KFL1 221924Z 16003KT 00/01 A297 RMK A01 T000000-8  RH  094%=      5-min Rain = 0
KFL1 221925Z 16003KT M00/M01 A297 RMK A01 T10011009  RH  094%=      5-min Rain = 0
KFL1 221926Z 16002KT M00/M01 A297 RMK A01 T10011009  RH  094%=      5-min Rain = 0
KFL1 221927Z 16001KT 00/01 A297 RMK A01 T00-000-8  RH  095%=      5-min Rain = 0
KFL1 221928Z 18000KT 00/01 A297 RMK A01 T00-000-8  RH  095%=      5-min Rain = 0
KFL1 221929Z 23001KT 00/01 A297 RMK A01 T00-000-7  RH  095%=      5-min Rain = 0
KFL1 221930Z 24002KT 00/M00 A297 RMK A01 T00021004  RH  096%=      5-min Rain = 0
KFL1 221931Z 24002KT 00/M01 A297 RMK A01 T00011005  RH  096%=      5-min Rain = 0
KFL1 221932Z 24002KT 00/01 A297 RMK A01 T000000-6  RH  096%=      5-min Rain = 0
KFL1 221933Z 23001KT 00/M01 A297 RMK A01 T00011005  RH  096%=      5-min Rain = 0
KFL1 221934Z 19001KT 00/01 A297 RMK A01 T000000-6  RH  095%=      5-min Rain = 0
KFL1 221935Z 22001KT 00/01 A2969 RMK A01 T000000-6  RH  096%=      5-min Rain = 0
KFL1 221936Z 25001KT 00/M01 A2969 RMK A01 T00011006  RH  096%=      5-min Rain = 0
KFL1 221937Z 24001KT 00/M01 A2969 RMK A01 T00011006  RH  096%=      5-min Rain = 0
KFL1 221938Z 18003KT M00/M01 A2969 RMK A01 T10011008  RH  095%=      5-min Rain = 0
KFL1 221939Z 18003KT M00/M01 A2969 RMK A01 T10011009  RH  095%=      5-min Rain = 0
KFL1 221940Z 24002KT M00/M01 A2969 RMK A01 T10041014  RH  093%=      5-min Rain = 0
KFL1 221941Z 23001KT M01/M02 A2969 RMK A01 T10061016  RH  093%=      5-min Rain = 0
KFL1 221942Z 27003KT M01/M02 A2969 RMK A01 T10071018  RH  093%=      5-min Rain = 0
KFL1 221943Z 27002KT M01/M02 A2969 RMK A01 T10101021  RH  092%=      5-min Rain = 0
KFL1 221944Z 24002KT M01/M02 A2969 RMK A01 T10111023  RH  092%=      5-min Rain = 0
KFL1 221945Z 23002KT M01/M03 A2969 RMK A01 T10141025  RH  092%=      5-min Rain = 0
KFL1 221946Z 28002KT M01/M02 A2969 RMK A01 T10131024  RH  092%=      5-min Rain = 0
KFL1 221947Z 26002KT M01/M02 A2969 RMK A01 T10141024  RH  093%=      5-min Rain = 0
KFL1 221948Z 27002KT M01/M02 A2969 RMK A01 T10121022  RH  093%=      5-min Rain = 0
KFL1 221949Z 29002KT M01/M02 A2969 RMK A01 T10131022  RH  093%=      5-min Rain = 0
KFL1 221950Z 25003KT M01/M02 A2969 RMK A01 T10111020  RH  094%=      5-min Rain = 0
KFL1 221951Z 26003KT M01/M02 A2969 RMK A01 T10121021  RH  094%=      5-min Rain = 0
KFL1 221952Z 23004KT M01/M02 A2969 RMK A01 T10141024  RH  093%=      5-min Rain = 0
KFL1 221953Z 27002KT M02/M03 A2969 RMK A01 T10161028  RH  092%=      5-min Rain = 0
KFL1 221954Z 26002KT M02/M03 A2969 RMK A01 T10171027  RH  092%=      5-min Rain = 0
KFL1 221955Z 26002KT M02/M03 A2969 RMK A01 T10161026  RH  093%=      5-min Rain = 0
KFL1 221956Z 26005KT M02/M03 A2969 RMK A01 T10181030  RH  092%=      5-min Rain = 0
KFL1 221957Z 26008KT M02/M03 A2968 RMK A01 T10191031  RH  092%=      5-min Rain = 0
KFL1 221958Z 21005KT M02/M03 A2968 RMK A01 T10201032  RH  092%=      5-min Rain = 0
KFL1 221959Z 18007KT M02/M03 A2968 RMK A01 T10201032  RH  092%=      5-min Rain = 0
KFL1 222000Z 21006KT M02/M03 A2968 RMK A01 T10191030  RH  093%=      5-min Rain = 0
KFL1 222001Z 23007KT M02/M03 A2968 RMK A01 T10191029  RH  093%=      5-min Rain = 0.01
KFL1 222002Z 24008KT M02/M04 A2968 RMK A01 T10221035  RH  091%=      5-min Rain = 0
KFL1 222003Z 25004KT M02/M04 A2968 RMK A01 T10241038  RH  090%=      5-min Rain = 0
KFL1 222004Z 23006KT M03/M04 A2968 RMK A01 T10251038  RH  091%=      5-min Rain = 0
KFL1 222005Z 24005KT M03/M04 A2968 RMK A01 T10251038  RH  091%=      5-min Rain = 0
KFL1 222006Z 25004KT M03/M04 A2967 RMK A01 T10251036  RH  092%=      5-min Rain = 0
KFL1 222007Z 25002KT M02/M03 A2967 RMK A01 T10231034  RH  093%=      5-min Rain = 0
KFL1 222008Z 27003KT M02/M03 A2967 RMK A01 T10231033  RH  093%=      5-min Rain = 0.01
KFL1 222009Z 28001KT M02/M03 A2967 RMK A01 T10221031  RH  094%=      5-min Rain = 0.01
KFL1 222010Z 29002KT M02/M03 A2967 RMK A01 T10191027  RH  094%=      5-min Rain = 0.03
KFL1 222011Z 30002KT M02/M03 A2967 RMK A01 T10181026  RH  095%=      5-min Rain = 0
KFL1 222012Z 26001KT M02/M02 A2967 RMK A01 T10171024  RH  095%=      5-min Rain = 0
KFL1 222013Z 23002KT M02/M02 A2967 RMK A01 T10151022  RH  095%=      5-min Rain = 0.01
KFL1 222014Z 24002KT M01/M02 A2967 RMK A01 T10141021  RH  095%=      5-min Rain = 0
KFL1 222015Z 24002KT M01/M02 A2967 RMK A01 T10131021  RH  094%=      5-min Rain = 0
KFL1 222016Z 28002KT M01/M02 A2967 RMK A01 T10121020  RH  095%=      5-min Rain = 0
KFL1 222017Z 28002KT M01/M02 A2967 RMK A01 T10121020  RH  094%=      5-min Rain = 0
KFL1 222018Z 27003KT M01/M02 A2967 RMK A01 T10121021  RH  094%=      5-min Rain = 0
KFL1 222019Z 28004KT M01/M02 A2967 RMK A01 T10121021  RH  093%=      5-min Rain = 0
KFL1 222020Z 27004KT M01/M02 A2967 RMK A01 T10141024  RH  093%=      5-min Rain = 0
KFL1 222021Z 26004KT M01/M03 A2967 RMK A01 T10141025  RH  092%=      5-min Rain = 0
KFL1 222022Z 25003KT M02/M03 A2967 RMK A01 T10151026  RH  092%=      5-min Rain = 0
KFL1 222023Z 24003KT M02/M03 A2967 RMK A01 T10161026  RH  092%=      5-min Rain = 0
KFL1 222024Z 24003KT M02/M03 A2967 RMK A01 T10161027  RH  092%=      5-min Rain = 0
KFL1 222025Z 23003KT M02/M03 A2967 RMK A01 T10181029  RH  092%=      5-min Rain = 0
KFL1 222026Z 23005KT M02/M03 A2967 RMK A01 T10181029  RH  092%=      5-min Rain = 0
KFL1 222027Z 23006KT M02/M03 A2967 RMK A01 T10181029  RH  092%=      5-min Rain = 0
KFL1 222028Z 23008KT M02/M03 A2967 RMK A01 T10201032  RH  092%=      5-min Rain = 0
KFL1 222029Z 23008KT M02/M04 A2967 RMK A01 T10221035  RH  091%=      5-min Rain = 0
KFL1 222030Z 25008KT M03/M04 A2967 RMK A01 T10251038  RH  091%=      5-min Rain = 0.01
KFL1 222031Z 25006KT M03/M04 A2967 RMK A01 T10251037  RH  091%=      5-min Rain = 0
KFL1 222032Z 23006KT M03/M04 A2967 RMK A01 T10261038  RH  092%=      5-min Rain = 0
KFL1 222033Z 22007KT M03/M04 A2968 RMK A01 T10281039  RH  092%=      5-min Rain = 0
KFL1 222034Z 24007KT M03/M04 A2968 RMK A01 T10281039  RH  092%=      5-min Rain = 0
KFL1 222035Z 24006KT M03/M04 A2968 RMK A01 T10291040  RH  093%=      5-min Rain = 0
KFL1 222036Z 24005KT M03/M04 A2968 RMK A01 T10301040  RH  093%=      5-min Rain = 0
KFL1 222037Z 24005KT M03/M04 A2968 RMK A01 T10291038  RH  093%=      5-min Rain = 0
KFL1 222038Z 23004KT M03/M04 A2968 RMK A01 T10281037  RH  094%=      5-min Rain = 0
KFL1 222039Z 23006KT M03/M04 A2968 RMK A01 T10271035  RH  094%=      5-min Rain = 0
KFL1 222040Z 23005KT M03/M04 A2968 RMK A01 T10271035  RH  094%=      5-min Rain = 0
KFL1 222041Z 24004KT M03/M04 A2967 RMK A01 T10281037  RH  094%=      5-min Rain = 0
KFL1 222042Z 25004KT M03/M04 A2967 RMK A01 T10281036  RH  094%=      5-min Rain = 0
KFL1 222043Z 23005KT M03/M04 A2967 RMK A01 T10271035  RH  094%=      5-min Rain = 0
KFL1 222044Z 23005KT M03/M04 A2967 RMK A01 T10271035  RH  094%=      5-min Rain = 0
KFL1 222045Z 23006KT M03/M04 A2967 RMK A01 T10271035  RH  094%=      5-min Rain = 0
KFL1 222046Z 23005KT M03/M04 A2967 RMK A01 T10271035  RH  094%=      5-min Rain = 0
KFL1 222047Z 25008KT M03/M04 A2968 RMK A01 T10271035  RH  094%=      5-min Rain = 0
KFL1 222048Z 24007KT M03/M04 A2968 RMK A01 T10291038  RH  094%=      5-min Rain = 0
KFL1 222049Z 24007KT M03/M04 A2968 RMK A01 T10301039  RH  093%=      5-min Rain = 0.01
KFL1 222050Z 23007KT M03/M04 A2968 RMK A01 T10301039  RH  093%=      5-min Rain = 0
KFL1 222051Z 23006KT M03/M04 A2968 RMK A01 T10301040  RH  093%=      5-min Rain = 0
KFL1 222052Z 23007KT M03/M04 A2968 RMK A01 T10301039  RH  094%=      5-min Rain = 0
KFL1 222053Z 23006KT M03/M04 A2968 RMK A01 T10311040  RH  094%=      5-min Rain = 0
KFL1 222054Z 23006KT M03/M04 A2968 RMK A01 T10321041  RH  094%=      5-min Rain = 0
KFL1 222055Z 23006KT M03/M04 A2968 RMK A01 T10311039  RH  094%=      5-min Rain = 0
KFL1 222056Z 23006KT M03/M04 A2968 RMK A01 T10321040  RH  094%=      5-min Rain = 0
KFL1 222057Z 23006KT M03/M04 A2968 RMK A01 T10301038  RH  095%=      5-min Rain = 0
KFL1 222058Z 24005KT M03/M04 A2968 RMK A01 T10301037  RH  095%=      5-min Rain = 0
KFL1 222059Z 24005KT M03/M04 A2968 RMK A01 T10301037  RH  095%=      5-min Rain = 0
KFL1 222100Z 25007KT M03/M04 A2968 RMK A01 T10301037  RH  095%=      5-min Rain = 0
KFL1 222101Z 25006KT M03/M04 A2968 RMK A01 T10301038  RH  095%=      5-min Rain = 0
KFL1 222102Z 26005KT M03/M04 A2968 RMK A01 T10301037  RH  095%=      5-min Rain = 0
KFL1 222103Z 27006KT M03/M04 A2968 RMK A01 T10301038  RH  095%=      5-min Rain = 0
KFL1 222104Z 26006KT M03/M04 A2968 RMK A01 T10311039  RH  094%=      5-min Rain = 0
KFL1 222105Z 24006KT M03/M04 A2968 RMK A01 T10311039  RH  094%=      5-min Rain = 0
KFL1 222106Z 25006KT M03/M04 A2968 RMK A01 T10311040  RH  094%=      5-min Rain = 0.01
KFL1 222107Z 25006KT M03/M04 A2968 RMK A01 T10311039  RH  094%=      5-min Rain = 0
KFL1 222108Z 25005KT M03/M04 A2968 RMK A01 T10321040  RH  094%=      5-min Rain = 0
KFL1 222109Z 26005KT M03/M04 A2968 RMK A01 T10311039  RH  095%=      5-min Rain = 0
KFL1 222110Z 27005KT M03/M04 A2968 RMK A01 T10311039  RH  094%=      5-min Rain = 0
KFL1 222111Z 27006KT M03/M04 A2968 RMK A01 T10311039  RH  095%=      5-min Rain = 0
KFL1 222112Z 27006KT M03/M04 A2968 RMK A01 T10321039  RH  095%=      5-min Rain = 0
KFL1 222113Z 27005KT M03/M04 A2968 RMK A01 T10311038  RH  095%=      5-min Rain = 0
KFL1 222114Z 26006KT M03/M04 A2968 RMK A01 T10321039  RH  094%=      5-min Rain = 0
KFL1 222115Z 26005KT M03/M04 A2968 RMK A01 T10311039  RH  095%=      5-min Rain = 0
KFL1 222116Z 25005KT M03/M04 A2968 RMK A01 T10311039  RH  095%=      5-min Rain = 0
KFL1 222117Z 25004KT M03/M04 A2968 RMK A01 T10311038  RH  095%=      5-min Rain = 0
KFL1 222118Z 26005KT M03/M04 A2967 RMK A01 T10301037  RH  095%=      5-min Rain = 0
KFL1 222119Z 27004KT M03/M04 A2967 RMK A01 T10321039  RH  094%=      5-min Rain = 0
KFL1 222120Z 27004KT M03/M04 A2967 RMK A01 T10301038  RH  095%=      5-min Rain = 0
KFL1 222121Z 26004KT M03/M04 A2967 RMK A01 T10301037  RH  095%=      5-min Rain = 0
KFL1 222122Z 25004KT M03/M04 A2967 RMK A01 T10301038  RH  095%=      5-min Rain = 0
KFL1 222123Z 26003KT M03/M04 A2967 RMK A01 T10301038  RH  095%=      5-min Rain = 0
KFL1 222124Z 26004KT M03/M04 A2967 RMK A01 T10291036  RH  095%=      5-min Rain = 0
KFL1 222125Z 26004KT M03/M04 A2967 RMK A01 T10291036  RH  095%=      5-min Rain = 0
KFL1 222126Z 26003KT M03/M04 A2967 RMK A01 T10291036  RH  095%=      5-min Rain = 0.01
KFL1 222127Z 27003KT M03/M04 A2967 RMK A01 T10291037  RH  095%=      5-min Rain = 0
KFL1 222128Z 27004KT M03/M04 A2967 RMK A01 T10301037  RH  094%=      5-min Rain = 0
KFL1 222129Z 27004KT M03/M04 A2967 RMK A01 T10291037  RH  095%=      5-min Rain = 0
KFL1 222130Z 26004KT M03/M04 A2966 RMK A01 T10311039  RH  094%=      5-min Rain = 0
KFL1 222131Z 27004KT M03/M04 A2966 RMK A01 T10301038  RH  094%=      5-min Rain = 0
KFL1 222132Z 27004KT M03/M04 A2966 RMK A01 T10301038  RH  094%=      5-min Rain = 0
KFL1 222133Z 26003KT M03/M04 A2967 RMK A01 T10301037  RH  095%=      5-min Rain = 0
KFL1 222134Z 27005KT M03/M04 A2967 RMK A01 T10291036  RH  095%=      5-min Rain = 0
KFL1 222135Z 25004KT M03/M04 A2967 RMK A01 T10301037  RH  095%=      5-min Rain = 0
KFL1 222136Z 25004KT M03/M04 A2967 RMK A01 T10301038  RH  095%=      5-min Rain = 0
KFL1 222137Z 24004KT M03/M04 A2967 RMK A01 T10281036  RH  095%=      5-min Rain = 0
KFL1 222138Z 24004KT M03/M04 A2967 RMK A01 T10291037  RH  095%=      5-min Rain = 0
KFL1 222139Z 25004KT M03/M04 A2967 RMK A01 T10311038  RH  095%=      5-min Rain = 0
KFL1 222140Z 24005KT M03/M04 A2967 RMK A01 T10291036  RH  095%=      5-min Rain = 0
KFL1 222141Z 24005KT M03/M04 A2967 RMK A01 T10301037  RH  095%=      5-min Rain = 0
KFL1 222142Z 23005KT M03/M04 A2967 RMK A01 T10291036  RH  095%=      5-min Rain = 0
KFL1 222143Z 23005KT M03/M04 A2967 RMK A01 T10291037  RH  095%=      5-min Rain = 0
KFL1 222144Z 23006KT M03/M04 A2967 RMK A01 T10311038  RH  094%=      5-min Rain = 0
KFL1 222145Z 22005KT M03/M04 A2967 RMK A01 T10311038  RH  095%=      5-min Rain = 0
KFL1 222146Z 23005KT M03/M04 A2967 RMK A01 T10321040  RH  094%=      5-min Rain = 0
KFL1 222147Z 23007KT M03/M04 A2967 RMK A01 T10311038  RH  095%=      5-min Rain = 0
KFL1 222148Z 23007KT M03/M04 A2967 RMK A01 T10311038  RH  095%=      5-min Rain = 0
KFL1 222149Z 23006KT M03/M04 A2967 RMK A01 T10321040  RH  095%=      5-min Rain = 0
KFL1 222150Z 24006KT M03/M04 A2967 RMK A01 T10321040  RH  095%=      5-min Rain = 0
KFL1 222151Z 24006KT M03/M04 A2967 RMK A01 T10321039  RH  095%=      5-min Rain = 0
KFL1 222152Z 24006KT M03/M04 A2967 RMK A01 T10321039  RH  095%=      5-min Rain = 0
KFL1 222153Z 24005KT M03/M04 A2967 RMK A01 T10331040  RH  095%=      5-min Rain = 0
KFL1 222154Z 24006KT M03/M04 A2967 RMK A01 T10331039  RH  095%=      5-min Rain = 0
KFL1 222155Z 24006KT M03/M04 A2967 RMK A01 T10331040  RH  095%=      5-min Rain = 0
KFL1 222156Z 24006KT M03/M04 A2967 RMK A01 T10331039  RH  095%=      5-min Rain = 0
KFL1 222157Z 24005KT M03/M04 A2967 RMK A01 T10331040  RH  095%=      5-min Rain = 0
KFL1 222158Z 24005KT M03/M04 A2967 RMK A01 T10321038  RH  095%=      5-min Rain = 0
KFL1 222159Z 24005KT M03/M04 A2967 RMK A01 T10321039  RH  095%=      5-min Rain = 0.01
KFL1 222200Z 25005KT M03/M04 A2967 RMK A01 T10311038  RH  095%=      5-min Rain = 0
KFL1 222201Z 25005KT M03/M04 A2967 RMK A01 T10321038  RH  096%=      5-min Rain = 0
KFL1 222202Z 24005KT M03/M04 A2968 RMK A01 T10301036  RH  096%=      5-min Rain = 0
KFL1 222203Z 24005KT M03/M04 A2968 RMK A01 T10301036  RH  096%=      5-min Rain = 0
KFL1 222204Z 24004KT M03/M04 A2968 RMK A01 T10301036  RH  096%=      5-min Rain = 0
KFL1 222205Z 24004KT M03/M04 A2967 RMK A01 T10311037  RH  096%=      5-min Rain = 0
KFL1 222206Z 24003KT M03/M04 A2967 RMK A01 T10311036  RH  096%=      5-min Rain = 0
KFL1 222207Z 25003KT M03/M04 A2967 RMK A01 T10301036  RH  096%=      5-min Rain = 0
KFL1 222208Z 24003KT M03/M04 A2967 RMK A01 T10301036  RH  096%=      5-min Rain = 0
KFL1 222209Z 24003KT M03/M04 A2967 RMK A01 T10301036  RH  096%=      5-min Rain = 0
KFL1 222210Z 25003KT M03/M04 A2967 RMK A01 T10291035  RH  096%=      5-min Rain = 0
KFL1 222211Z 24002KT M03/M04 A2967 RMK A01 T10291035  RH  096%=      5-min Rain = 0
KFL1 222212Z 24003KT M03/M04 A2967 RMK A01 T10291035  RH  096%=      5-min Rain = 0
KFL1 222213Z 24004KT M03/M03 A2967 RMK A01 T10271032  RH  096%=      5-min Rain = 0
KFL1 222214Z 24004KT M03/M03 A2967 RMK A01 T10281034  RH  096%=      5-min Rain = 0
KFL1 222215Z 24003KT M03/M03 A2967 RMK A01 T10271033  RH  096%=      5-min Rain = 0
KFL1 222216Z 23003KT M03/M03 A2967 RMK A01 T10271033  RH  096%=      5-min Rain = 0
KFL1 222217Z 22002KT M03/M03 A2967 RMK A01 T10261032  RH  096%=      5-min Rain = 0
KFL1 222218Z 23003KT M03/M03 A2967 RMK A01 T10251031  RH  096%=      5-min Rain = 0
KFL1 222219Z 23004KT M03/M03 A2967 RMK A01 T10261032  RH  096%=      5-min Rain = 0
KFL1 222220Z 22002KT M03/M03 A2967 RMK A01 T10251031  RH  096%=      5-min Rain = 0
KFL1 222221Z 23003KT M03/M03 A2967 RMK A01 T10251031  RH  096%=      5-min Rain = 0
KFL1 222222Z 24004KT M03/M03 A2968 RMK A01 T10251030  RH  096%=      5-min Rain = 0
KFL1 222223Z 23005KT M02/M03 A2968 RMK A01 T10241030  RH  096%=      5-min Rain = 0
KFL1 222224Z 23005KT M02/M03 A2968 RMK A01 T10241030  RH  096%=      5-min Rain = 0
KFL1 222225Z 23007KT M03/M03 A2968 RMK A01 T10251031  RH  096%=      5-min Rain = 0
KFL1 222226Z 24006KT M02/M03 A2968 RMK A01 T10231030  RH  096%=      5-min Rain = 0.01
KFL1 222227Z 24006KT M03/M03 A2968 RMK A01 T10251031  RH  095%=      5-min Rain = 0
KFL1 222228Z 24007KT M03/M03 A2968 RMK A01 T10251032  RH  095%=      5-min Rain = 0
KFL1 222229Z 24006KT M03/M03 A2968 RMK A01 T10261033  RH  095%=      5-min Rain = 0
KFL1 222230Z 24007KT M03/M03 A2968 RMK A01 T10261034  RH  095%=      5-min Rain = 0
KFL1 222231Z 25008KT M03/M03 A2969 RMK A01 T10271034  RH  095%=      5-min Rain = 0
KFL1 222232Z 25007KT M03/M03 A2969 RMK A01 T10261033  RH  095%=      5-min Rain = 0
KFL1 222233Z 26007KT M03/M04 A2969 RMK A01 T10281035  RH  095%=      5-min Rain = 0
KFL1 222234Z 27006KT M03/M04 A2969 RMK A01 T10281036  RH  095%=      5-min Rain = 0
KFL1 222235Z 28006KT M03/M04 A2969 RMK A01 T10291036  RH  095%=      5-min Rain = 0
KFL1 222236Z 27006KT M03/M04 A2969 RMK A01 T10291036  RH  095%=      5-min Rain = 0
KFL1 222237Z 27006KT M03/M04 A2969 RMK A01 T10301036  RH  095%=      5-min Rain = 0
KFL1 222238Z 27006KT M03/M04 A2969 RMK A01 T10301036  RH  095%=      5-min Rain = 0
KFL1 222239Z 28007KT M03/M04 A2969 RMK A01 T10301036  RH  096%=      5-min Rain = 0
KFL1 222240Z 27008KT M03/M04 A2969 RMK A01 T10301036  RH  095%=      5-min Rain = 0
KFL1 222241Z 27008KT M03/M04 A2969 RMK A01 T10301036  RH  095%=      5-min Rain = 0
KFL1 222242Z 27008KT M03/M04 A2969 RMK A01 T10291036  RH  095%=      5-min Rain = 0
KFL1 222243Z 28008KT M03/M04 A2969 RMK A01 T10291036  RH  095%=      5-min Rain = 0
KFL1 222244Z 28007KT M03/M04 A2969 RMK A01 T10321039  RH  095%=      5-min Rain = 0
KFL1 222245Z 28007KT M03/M04 A2969 RMK A01 T10321039  RH  095%=      5-min Rain = 0
KFL1 222246Z 28007KT M03/M04 A2969 RMK A01 T10321039  RH  095%=      5-min Rain = 0
KFL1 222247Z 27006KT M03/M04 A2969 RMK A01 T10321039  RH  095%=      5-min Rain = 0
KFL1 222248Z 27005KT M03/M04 A2969 RMK A01 T10311037  RH  096%=      5-min Rain = 0
KFL1 222249Z 27008KT M03/M04 A2969 RMK A01 T10321038  RH  096%=      5-min Rain = 0
KFL1 222250Z 27007KT M03/M04 A2969 RMK A01 T10311036  RH  096%=      5-min Rain = 0
KFL1 222251Z 29007KT M03/M04 A2969 RMK A01 T10321038  RH  096%=      5-min Rain = 0
KFL1 222252Z 29009KT M03/M04 A2969 RMK A01 T10331039  RH  095%=      5-min Rain = 0
KFL1 222253Z 28007KT M03/M04 A2969 RMK A01 T10331039  RH  095%=      5-min Rain = 0
KFL1 222254Z 29006KT M03/M04 A2969 RMK A01 T10331039  RH  095%=      5-min Rain = 0
KFL1 222255Z 29005KT M03/M04 A2969 RMK A01 T10341041  RH  095%=      5-min Rain = 0
KFL1 222256Z 29007KT M03/M04 A2969 RMK A01 T10341041  RH  095%=      5-min Rain = 0
KFL1 222257Z 27006KT M03/M04 A2969 RMK A01 T10331040  RH  095%=      5-min Rain = 0
KFL1 222258Z 28006KT M03/M04 A2969 RMK A01 T10341040  RH  095%=      5-min Rain = 0
KFL1 222259Z 29005KT M03/M04 A2969 RMK A01 T10331040  RH  096%=      5-min Rain = 0
KFL1 222300Z 29004KT M03/M04 A2969 RMK A01 T10331040  RH  096%=      5-min Rain = 0
KFL1 222301Z 30005KT M03/M04 A2969 RMK A01 T10341040  RH  096%=      5-min Rain = 0
KFL1 222302Z 30005KT M03/M04 A2969 RMK A01 T10341040  RH  096%=      5-min Rain = 0
KFL1 222303Z 30004KT M03/M04 A2969 RMK A01 T10341040  RH  096%=      5-min Rain = 0
KFL1 222304Z 29004KT M03/M04 A2969 RMK A01 T10331039  RH  096%=      5-min Rain = 0
KFL1 222305Z 30004KT M03/M04 A2969 RMK A01 T10341040  RH  096%=      5-min Rain = 0
KFL1 222306Z 31005KT M03/M04 A2969 RMK A01 T10331039  RH  096%=      5-min Rain = 0
KFL1 222307Z 30004KT M03/M04 A2968 RMK A01 T10331038  RH  096%=      5-min Rain = 0
KFL1 222308Z 30004KT M03/M04 A2968 RMK A01 T10331039  RH  096%=      5-min Rain = 0
KFL1 222309Z 29003KT M03/M04 A2968 RMK A01 T10321037  RH  096%=      5-min Rain = 0
KFL1 222310Z 30003KT M03/M04 A2969 RMK A01 T10311036  RH  096%=      5-min Rain = 0
KFL1 222311Z 31003KT M03/M04 A2969 RMK A01 T10331038  RH  096%=      5-min Rain = 0
KFL1 222312Z 30004KT M03/M04 A2969 RMK A01 T10311036  RH  096%=      5-min Rain = 0
KFL1 222313Z 31004KT M03/M04 A2969 RMK A01 T10311036  RH  096%=      5-min Rain = 0
KFL1 222314Z 31005KT M03/M04 A2969 RMK A01 T10301036  RH  096%=      5-min Rain = 0
KFL1 222315Z 30005KT M03/M04 A2969 RMK A01 T10311037  RH  096%=      5-min Rain = 0
KFL1 222316Z 32005KT M03/M04 A2969 RMK A01 T10321039  RH  095%=      5-min Rain = 0
KFL1 222317Z 32005KT M03/M04 A2969 RMK A01 T10331040  RH  095%=      5-min Rain = 0
KFL1 222318Z 32005KT M03/M04 A2968 RMK A01 T10331040  RH  095%=      5-min Rain = 0
KFL1 222319Z 32004KT M04/M04 A2968 RMK A01 T10351043  RH  095%=      5-min Rain = 0
KFL1 222320Z 31004KT M04/M04 A2968 RMK A01 T10351043  RH  095%=      5-min Rain = 0
KFL1 222321Z 30003KT M04/M04 A2968 RMK A01 T10361043  RH  095%=      5-min Rain = 0
KFL1 222322Z 32002KT M04/M04 A2969 RMK A01 T10351042  RH  095%=      5-min Rain = 0
KFL1 222323Z 34002KT M04/M04 A2969 RMK A01 T10351042  RH  095%=      5-min Rain = 0
KFL1 222324Z 35002KT M03/M04 A2969 RMK A01 T10341040  RH  096%=      5-min Rain = 0
KFL1 222325Z 35002KT M03/M04 A2969 RMK A01 T10331039  RH  096%=      5-min Rain = 0
KFL1 222326Z 34002KT M03/M04 A2969 RMK A01 T10331039  RH  096%=      5-min Rain = 0
KFL1 222327Z 35002KT M03/M04 A2969 RMK A01 T10341041  RH  095%=      5-min Rain = 0
KFL1 222328Z 35002KT M04/M04 A2969 RMK A01 T10351042  RH  095%=      5-min Rain = 0
KFL1 222329Z 00001KT M03/M04 A2969 RMK A01 T10341041  RH  095%=      5-min Rain = 0
KFL1 222330Z 03001KT M04/M04 A2969 RMK A01 T10361043  RH  095%=      5-min Rain = 0
KFL1 222331Z 05001KT M04/M04 A2969 RMK A01 T10351042  RH  095%=      5-min Rain = 0
KFL1 222332Z 06000KT M04/M04 A2969 RMK A01 T10351042  RH  095%=      5-min Rain = 0
KFL1 222333Z 09001KT M04/M04 A2969 RMK A01 T10351041  RH  095%=      5-min Rain = 0
KFL1 222334Z 10001KT M04/M04 A2969 RMK A01 T10351041  RH  096%=      5-min Rain = 0
KFL1 222335Z 10001KT M04/M04 A2969 RMK A01 T10351041  RH  096%=      5-min Rain = 0
KFL1 222336Z 12001KT M04/M04 A2969 RMK A01 T10351041  RH  096%=      5-min Rain = 0
KFL1 222337Z 13000KT M04/M04 A2969 RMK A01 T10351040  RH  096%=      5-min Rain = 0
KFL1 222338Z 16001KT M03/M04 A2969 RMK A01 T10341039  RH  096%=      5-min Rain = 0
KFL1 222339Z 13001KT M03/M04 A2969 RMK A01 T10341039  RH  096%=      5-min Rain = 0
KFL1 222340Z 11001KT M03/M04 A2969 RMK A01 T10341039  RH  096%=      5-min Rain = 0
KFL1 222341Z 10001KT M03/M04 A2969 RMK A01 T10331038  RH  096%=      5-min Rain = 0
KFL1 222342Z 10001KT M03/M04 A2969 RMK A01 T10331038  RH  096%=      5-min Rain = 0
KFL1 222343Z 11001KT M03/M04 A2969 RMK A01 T10331039  RH  096%=      5-min Rain = 0
KFL1 222344Z 12001KT M03/M04 A2969 RMK A01 T10341039  RH  096%=      5-min Rain = 0
KFL1 222345Z 12001KT M03/M04 A297 RMK A01 T10331038  RH  096%=      5-min Rain = 0
KFL1 222346Z 12001KT M03/M04 A297 RMK A01 T10341039  RH  096%=      5-min Rain = 0
KFL1 222347Z 12001KT M03/M04 A297 RMK A01 T10331038  RH  096%=      5-min Rain = 0
KFL1 222348Z 14001KT M03/M04 A297 RMK A01 T10341040  RH  096%=      5-min Rain = 0
KFL1 222349Z 15002KT M03/M04 A297 RMK A01 T10341040  RH  096%=      5-min Rain = 0
KFL1 222350Z 15002KT M03/M04 A297 RMK A01 T10341039  RH  096%=      5-min Rain = 0
KFL1 222351Z 15002KT M03/M04 A297 RMK A01 T10341040  RH  096%=      5-min Rain = 0
KFL1 222352Z 15002KT M04/M04 A297 RMK A01 T10351040  RH  096%=      5-min Rain = 0
KFL1 222353Z 16002KT M04/M04 A297 RMK A01 T10351040  RH  096%=      5-min Rain = 0
KFL1 222354Z 17002KT M04/M04 A297 RMK A01 T10351040  RH  096%=      5-min Rain = 0
KFL1 222355Z 17003KT M04/M04 A297 RMK A01 T10351040  RH  096%=      5-min Rain = 0
KFL1 222356Z 18003KT M04/M04 A2971 RMK A01 T10351040  RH  096%=      5-min Rain = 0
KFL1 222357Z 18002KT M03/M04 A2971 RMK A01 T10341039  RH  096%=      5-min Rain = 0
KFL1 222358Z 17002KT M04/M04 A2971 RMK A01 T10351041  RH  096%=      5-min Rain = 0
KFL1 222359Z 19002KT M04/M04 A2971 RMK A01 T10361041  RH  096%=      5-min Rain = 0
KFL1 230000Z 19002KT M04/M04 A2971 RMK A01 T10361042  RH  096%=      5-min Rain = 0
KFL1 230001Z 21002KT M04/M04 A2971 RMK A01 T10351040  RH  096%=      5-min Rain = 0
KFL1 230002Z 21001KT M04/M04 A297 RMK A01 T10361041  RH  096%=      5-min Rain = 0
KFL1 230003Z 21001KT M04/M04 A297 RMK A01 T10361041  RH  096%=      5-min Rain = 0
KFL1 230004Z 19001KT M04/M04 A297 RMK A01 T10351040  RH  096%=      5-min Rain = 0
KFL1 230005Z 20002KT M04/M04 A297 RMK A01 T10351040  RH  096%=      5-min Rain = 0
KFL1 230006Z 19001KT M03/M04 A297 RMK A01 T10341038  RH  097%=      5-min Rain = 0
KFL1 230007Z 19000KT M04/M04 A297 RMK A01 T10351040  RH  097%=      5-min Rain = 0
KFL1 230008Z 18000KT M04/M04 A297 RMK A01 T10361041  RH  097%=      5-min Rain = 0
KFL1 230009Z 00000KT M04/M04 A297 RMK A01 T10361040  RH  097%=      5-min Rain = 0
KFL1 230010Z 00000KT M03/M04 A297 RMK A01 T10331037  RH  097%=      5-min Rain = 0
KFL1 230011Z 08000KT M04/M04 A297 RMK A01 T10351039  RH  097%=      5-min Rain = 0
KFL1 230012Z 09002KT M03/M04 A2969 RMK A01 T10331038  RH  097%=      5-min Rain = 0
KFL1 230013Z 10002KT M04/M04 A2969 RMK A01 T10351041  RH  096%=      5-min Rain = 0
KFL1 230014Z 08003KT M04/M04 A2969 RMK A01 T10351041  RH  096%=      5-min Rain = 0
KFL1 230015Z 07003KT M04/M04 A2968 RMK A01 T10361042  RH  096%=      5-min Rain = 0
KFL1 230016Z 06003KT M04/M04 A2968 RMK A01 T10371043  RH  095%=      5-min Rain = 0
KFL1 230017Z 04003KT M04/M04 A2968 RMK A01 T10381044  RH  095%=      5-min Rain = 0
KFL1 230018Z 03003KT M04/M05 A2968 RMK A01 T10381045  RH  095%=      5-min Rain = 0
KFL1 230019Z 01003KT M04/M05 A2968 RMK A01 T10381045  RH  095%=      5-min Rain = 0
KFL1 230020Z 00003KT M04/M05 A2968 RMK A01 T10411049  RH  095%=      5-min Rain = 0
KFL1 230021Z 00003KT M04/M05 A2968 RMK A01 T10431050  RH  094%=      5-min Rain = 0
KFL1 230022Z 01003KT M04/M05 A2968 RMK A01 T10441052  RH  094%=      5-min Rain = 0
KFL1 230023Z 02002KT M05/M05 A2968 RMK A01 T10451053  RH  094%=      5-min Rain = 0
KFL1 230024Z 04001KT M05/M05 A2969 RMK A01 T10461054  RH  094%=      5-min Rain = 0
KFL1 230025Z 09001KT M05/M05 A2969 RMK A01 T10461054  RH  094%=      5-min Rain = 0
KFL1 230026Z 14002KT M05/M05 A2969 RMK A01 T10461053  RH  095%=      5-min Rain = 0
KFL1 230027Z 13002KT M05/M05 A2969 RMK A01 T10471054  RH  095%=      5-min Rain = 0
KFL1 230028Z 14001KT M05/M05 A2968 RMK A01 T10461053  RH  095%=      5-min Rain = 0
KFL1 230029Z 15001KT M05/M05 A2968 RMK A01 T10471053  RH  096%=      5-min Rain = 0
KFL1 230030Z 16002KT M05/M05 A2968 RMK A01 T10471052  RH  096%=      5-min Rain = 0
KFL1 230031Z 17002KT M05/M05 A2968 RMK A01 T10461051  RH  096%=      5-min Rain = 0
KFL1 230032Z 16002KT M05/M05 A2968 RMK A01 T10471052  RH  096%=      5-min Rain = 0
KFL1 230033Z 17001KT M05/M05 A2968 RMK A01 T10461051  RH  096%=      5-min Rain = 0
KFL1 230034Z 16001KT M04/M05 A2968 RMK A01 T10441049  RH  097%=      5-min Rain = 0
KFL1 230035Z 15001KT M05/M05 A2968 RMK A01 T10451049  RH  097%=      5-min Rain = 0
KFL1 230036Z 11001KT M05/M05 A2968 RMK A01 T10451050  RH  097%=      5-min Rain = 0
KFL1 230037Z 09001KT M04/M05 A2968 RMK A01 T10441048  RH  097%=      5-min Rain = 0
KFL1 230038Z 08002KT M05/M05 A2968 RMK A01 T10451050  RH  097%=      5-min Rain = 0
KFL1 230039Z 09002KT M05/M05 A2968 RMK A01 T10451050  RH  097%=      5-min Rain = 0
KFL1 230040Z 11001KT M05/M05 A2968 RMK A01 T10461050  RH  097%=      5-min Rain = 0
KFL1 230041Z 19000KT M05/M05 A2968 RMK A01 T10451050  RH  097%=      5-min Rain = 0
KFL1 230042Z 21002KT M04/M05 A2969 RMK A01 T10441049  RH  097%=      5-min Rain = 0
KFL1 230043Z 22003KT M04/M05 A2969 RMK A01 T10441049  RH  097%=      5-min Rain = 0
KFL1 230044Z 22004KT M04/M05 A2969 RMK A01 T10441048  RH  097%=      5-min Rain = 0
KFL1 230045Z 21004KT M05/M05 A297 RMK A01 T10451050  RH  097%=      5-min Rain = 0
KFL1 230046Z 21005KT M05/M05 A297 RMK A01 T10451049  RH  097%=      5-min Rain = 0
KFL1 230047Z 22005KT M05/M05 A297 RMK A01 T10461050  RH  096%=      5-min Rain = 0
KFL1 230048Z 22005KT M05/M05 A297 RMK A01 T10471053  RH  096%=      5-min Rain = 0
KFL1 230049Z 23005KT M05/M05 A297 RMK A01 T10481054  RH  096%=      5-min Rain = 0
KFL1 230050Z 22006KT M05/M06 A297 RMK A01 T10501057  RH  095%=      5-min Rain = 0
KFL1 230051Z 22006KT M05/M06 A297 RMK A01 T10511058  RH  095%=      5-min Rain = 0
KFL1 230052Z 22007KT M05/M06 A2971 RMK A01 T10511058  RH  095%=      5-min Rain = 0
KFL1 230053Z 22008KT M05/M06 A2971 RMK A01 T10511058  RH  095%=      5-min Rain = 0
KFL1 230054Z 21008KT M05/M06 A2971 RMK A01 T10541061  RH  095%=      5-min Rain = 0
KFL1 230055Z 21009KT M05/M06 A2971 RMK A01 T10521059  RH  095%=      5-min Rain = 0
KFL1 230056Z 21009KT M05/M06 A2972 RMK A01 T10531059  RH  095%=      5-min Rain = 0
KFL1 230057Z 21008KT M05/M06 A2972 RMK A01 T10531059  RH  096%=      5-min Rain = 0
KFL1 230058Z 21007KT M05/M06 A2972 RMK A01 T10531058  RH  096%=      5-min Rain = 0
KFL1 230059Z 21006KT M05/M06 A2971 RMK A01 T10531058  RH  096%=      5-min Rain = 0
KFL1 230100Z 20005KT M05/M06 A2971 RMK A01 T10511056  RH  096%=      5-min Rain = 0
KFL1 230101Z 20004KT M05/M06 A2971 RMK A01 T10521056  RH  097%=      5-min Rain = 0
KFL1 230102Z 19004KT M05/M06 A2971 RMK A01 T10531057  RH  097%=      5-min Rain = 0
KFL1 230103Z 20003KT M05/M06 A2971 RMK A01 T10521057  RH  097%=      5-min Rain = 0
KFL1 230104Z 21005KT M05/M06 A2971 RMK A01 T10521056  RH  097%=      5-min Rain = 0
KFL1 230105Z 21007KT M05/M06 A2972 RMK A01 T10511055  RH  097%=      5-min Rain = 0
KFL1 230106Z 21008KT M05/M05 A2972 RMK A01 T10501054  RH  097%=      5-min Rain = 0
KFL1 230107Z 21008KT M05/M05 A2972 RMK A01 T10501054  RH  097%=      5-min Rain = 0
KFL1 230108Z 20007KT M05/M05 A2972 RMK A01 T10491053  RH  097%=      5-min Rain = 0
KFL1 230109Z 20005KT M05/M05 A2972 RMK A01 T10491052  RH  097%=      5-min Rain = 0
KFL1 230110Z 19003KT M05/M05 A2972 RMK A01 T10491052  RH  097%=      5-min Rain = 0
KFL1 230111Z 17003KT M05/M05 A2972 RMK A01 T10501053  RH  097%=      5-min Rain = 0
KFL1 230112Z 16002KT M05/M05 A2971 RMK A01 T10491052  RH  097%=      5-min Rain = 0
KFL1 230113Z 15002KT M05/M05 A2971 RMK A01 T10491053  RH  097%=      5-min Rain = 0
KFL1 230114Z 12002KT M05/M05 A2971 RMK A01 T10481052  RH  097%=      5-min Rain = 0
KFL1 230115Z 12003KT M05/M05 A2971 RMK A01 T10471051  RH  098%=      5-min Rain = 0
KFL1 230116Z 11003KT M05/M05 A297 RMK A01 T10481052  RH  097%=      5-min Rain = 0
KFL1 230117Z 11003KT M05/M05 A297 RMK A01 T10471051  RH  098%=      5-min Rain = 0
KFL1 230118Z 11004KT M05/M05 A297 RMK A01 T10481052  RH  097%=      5-min Rain = 0
KFL1 230119Z 10003KT M05/M05 A297 RMK A01 T10481051  RH  097%=      5-min Rain = 0
KFL1 230120Z 10003KT M05/M05 A2969 RMK A01 T10471050  RH  098%=      5-min Rain = 0
KFL1 230121Z 08004KT M05/M05 A2969 RMK A01 T10481052  RH  097%=      5-min Rain = 0
KFL1 230122Z 08004KT M05/M05 A2969 RMK A01 T10471050  RH  097%=      5-min Rain = 0
KFL1 230123Z 07003KT M05/M05 A2969 RMK A01 T10471051  RH  097%=      5-min Rain = 0
KFL1 230124Z 07002KT M05/M05 A2969 RMK A01 T10481051  RH  097%=      5-min Rain = 0
KFL1 230125Z 07002KT M05/M05 A2969 RMK A01 T10471051  RH  097%=      5-min Rain = 0
KFL1 230126Z 04000KT M05/M05 A2969 RMK A01 T10481052  RH  097%=      5-min Rain = 0
KFL1 230127Z 25001KT M05/M05 A2969 RMK A01 T10481052  RH  097%=      5-min Rain = 0
KFL1 230128Z 25002KT M05/M05 A297 RMK A01 T10491053  RH  097%=      5-min Rain = 0
KFL1 230129Z 25003KT M05/M05 A297 RMK A01 T10491053  RH  097%=      5-min Rain = 0
KFL1 230130Z 25003KT M05/M05 A297 RMK A01 T10491053  RH  097%=      5-min Rain = 0
KFL1 230131Z 25004KT M05/M05 A297 RMK A01 T10481053  RH  097%=      5-min Rain = 0
KFL1 230132Z 26003KT M05/M05 A297 RMK A01 T10481053  RH  097%=      5-min Rain = 0
KFL1 230133Z 26003KT M05/M05 A297 RMK A01 T10501054  RH  097%=      5-min Rain = 0
KFL1 230134Z 26002KT M05/M05 A297 RMK A01 T10501054  RH  097%=      5-min Rain = 0
KFL1 230135Z 26002KT M05/M05 A297 RMK A01 T10491053  RH  097%=      5-min Rain = 0
KFL1 230136Z 25002KT M05/M05 A297 RMK A01 T10491054  RH  097%=      5-min Rain = 0
KFL1 230137Z 23001KT M05/M05 A297 RMK A01 T10491053  RH  097%=      5-min Rain = 0
KFL1 230138Z 22001KT M05/M05 A297 RMK A01 T10491053  RH  097%=      5-min Rain = 0
KFL1 230139Z 22002KT M05/M05 A297 RMK A01 T10491053  RH  097%=      5-min Rain = 0
KFL1 230140Z 21002KT M05/M05 A297 RMK A01 T10501053  RH  097%=      5-min Rain = 0
KFL1 230141Z 21002KT M05/M05 A297 RMK A01 T10491053  RH  097%=      5-min Rain = 0
KFL1 230142Z 21002KT M05/M05 A297 RMK A01 T10481052  RH  097%=      5-min Rain = 0
KFL1 230143Z 22002KT M05/M05 A297 RMK A01 T10481052  RH  097%=      5-min Rain = 0
KFL1 230144Z 22002KT M05/M05 A297 RMK A01 T10481052  RH  097%=      5-min Rain = 0
KFL1 230145Z 23002KT M05/M05 A297 RMK A01 T10481052  RH  097%=      5-min Rain = 0
KFL1 230146Z 23002KT M05/M05 A297 RMK A01 T10491053  RH  097%=      5-min Rain = 0
KFL1 230147Z 22002KT M05/M05 A297 RMK A01 T10481052  RH  097%=      5-min Rain = 0
KFL1 230148Z 22002KT M05/M05 A297 RMK A01 T10471051  RH  097%=      5-min Rain = 0
KFL1 230149Z 22002KT M05/M05 A297 RMK A01 T10471051  RH  097%=      5-min Rain = 0
KFL1 230150Z 22002KT M05/M05 A297 RMK A01 T10471051  RH  097%=      5-min Rain = 0
KFL1 230151Z 22002KT M05/M05 A297 RMK A01 T10481052  RH  097%=      5-min Rain = 0
KFL1 230152Z 21003KT M05/M05 A297 RMK A01 T10481051  RH  097%=      5-min Rain = 0
KFL1 230153Z 21003KT M05/M05 A297 RMK A01 T10471051  RH  097%=      5-min Rain = 0
KFL1 230154Z 21003KT M05/M05 A297 RMK A01 T10491053  RH  097%=      5-min Rain = 0
KFL1 230155Z 22003KT M05/M05 A297 RMK A01 T10471051  RH  097%=      5-min Rain = 0
KFL1 230156Z 22003KT M05/M05 A297 RMK A01 T10471050  RH  097%=      5-min Rain = 0
KFL1 230157Z 22003KT M05/M05 A297 RMK A01 T10471051  RH  097%=      5-min Rain = 0
KFL1 230158Z 22003KT M05/M05 A297 RMK A01 T10481052  RH  097%=      5-min Rain = 0
KFL1 230159Z 22003KT M05/M05 A297 RMK A01 T10471050  RH  097%=      5-min Rain = 0
KFL1 230200Z 23004KT M05/M05 A297 RMK A01 T10471051  RH  097%=      5-min Rain = 0
KFL1 230201Z 22004KT M05/M05 A2971 RMK A01 T10481052  RH  097%=      5-min Rain = 0
KFL1 230202Z 22004KT M05/M05 A2971 RMK A01 T10481052  RH  097%=      5-min Rain = 0
KFL1 230203Z 21005KT M05/M05 A2971 RMK A01 T10471051  RH  097%=      5-min Rain = 0
KFL1 230204Z 21005KT M05/M05 A2971 RMK A01 T10461050  RH  097%=      5-min Rain = 0
KFL1 230205Z 21006KT M05/M05 A2972 RMK A01 T10461049  RH  097%=      5-min Rain = 0
KFL1 230206Z 21006KT M05/M05 A2972 RMK A01 T10471050  RH  097%=      5-min Rain = 0
KFL1 230207Z 20005KT M05/M05 A2972 RMK A01 T10471050  RH  097%=      5-min Rain = 0
KFL1 230208Z 20005KT M05/M05 A2972 RMK A01 T10461050  RH  097%=      5-min Rain = 0
KFL1 230209Z 19005KT M05/M05 A2972 RMK A01 T10471051  RH  097%=      5-min Rain = 0
KFL1 230210Z 19004KT M05/M05 A2972 RMK A01 T10461050  RH  098%=      5-min Rain = 0
KFL1 230211Z 19005KT M05/M05 A2972 RMK A01 T10461049  RH  098%=      5-min Rain = 0
KFL1 230212Z 20006KT M05/M05 A2972 RMK A01 T10451048  RH  098%=      5-min Rain = 0
KFL1 230213Z 20005KT M05/M05 A2972 RMK A01 T10461049  RH  098%=      5-min Rain = 0
KFL1 230214Z 19007KT M05/M05 A2972 RMK A01 T10451049  RH  098%=      5-min Rain = 0
KFL1 230215Z 19004KT M05/M05 A2972 RMK A01 T10451049  RH  098%=      5-min Rain = 0
KFL1 230216Z 20006KT M04/M05 A2972 RMK A01 T10431047  RH  098%=      5-min Rain = 0
KFL1 230217Z 20005KT M04/M05 A2972 RMK A01 T10441048  RH  098%=      5-min Rain = 0
KFL1 230218Z 19005KT M05/M05 A2972 RMK A01 T10461049  RH  098%=      5-min Rain = 0
KFL1 230219Z 20004KT M05/M05 A2972 RMK A01 T10451048  RH  098%=      5-min Rain = 0
KFL1 230220Z 19004KT M04/M05 A2972 RMK A01 T10441047  RH  098%=      5-min Rain = 0
KFL1 230221Z 19004KT M04/M05 A2972 RMK A01 T10441047  RH  098%=      5-min Rain = 0
KFL1 230222Z 19004KT M04/M05 A2972 RMK A01 T10441047  RH  098%=      5-min Rain = 0
KFL1 230223Z 19004KT M05/M05 A2972 RMK A01 T10451048  RH  098%=      5-min Rain = 0
KFL1 230224Z 19005KT M04/M05 A2972 RMK A01 T10431047  RH  098%=      5-min Rain = 0
KFL1 230225Z 20004KT M05/M05 A2972 RMK A01 T10451049  RH  097%=      5-min Rain = 0
KFL1 230226Z 20004KT M05/M05 A2972 RMK A01 T10451048  RH  098%=      5-min Rain = 0
KFL1 230227Z 19005KT M04/M05 A2972 RMK A01 T10441047  RH  098%=      5-min Rain = 0
KFL1 230228Z 19005KT M04/M05 A2972 RMK A01 T10441047  RH  098%=      5-min Rain = 0
KFL1 230229Z 19004KT M05/M05 A2972 RMK A01 T10451049  RH  097%=      5-min Rain = 0
KFL1 230230Z 19005KT M05/M05 A2972 RMK A01 T10451048  RH  098%=      5-min Rain = 0
KFL1 230231Z 19005KT M04/M05 A2972 RMK A01 T10441048  RH  098%=      5-min Rain = 0
KFL1 230232Z 19005KT M04/M05 A2972 RMK A01 T10441047  RH  098%=      5-min Rain = 0
KFL1 230233Z 20005KT M04/M05 A2972 RMK A01 T10441048  RH  098%=      5-min Rain = 0
KFL1 230234Z 19004KT M04/M05 A2972 RMK A01 T10431046  RH  098%=      5-min Rain = 0
KFL1 230235Z 19004KT M04/M05 A2972 RMK A01 T10441047  RH  098%=      5-min Rain = 0
KFL1 230236Z 19005KT M04/M05 A2972 RMK A01 T10441047  RH  098%=      5-min Rain = 0
KFL1 230237Z 19005KT M04/M05 A2972 RMK A01 T10441047  RH  098%=      5-min Rain = 0
KFL1 230238Z 19004KT M04/M05 A2972 RMK A01 T10441047  RH  098%=      5-min Rain = 0
KFL1 230239Z 19004KT M04/M05 A2972 RMK A01 T10431047  RH  098%=      5-min Rain = 0
KFL1 230240Z 19004KT M04/M05 A2972 RMK A01 T10441048  RH  098%=      5-min Rain = 0
KFL1 230241Z 18004KT M04/M05 A2972 RMK A01 T10441048  RH  098%=      5-min Rain = 0
KFL1 230242Z 18004KT M04/M05 A2972 RMK A01 T10431046  RH  098%=      5-min Rain = 0
KFL1 230243Z 18003KT M04/M05 A2972 RMK A01 T10431046  RH  098%=      5-min Rain = 0
KFL1 230244Z 19004KT M04/M05 A2972 RMK A01 T10441048  RH  098%=      5-min Rain = 0
KFL1 230245Z 17003KT M04/M05 A2972 RMK A01 T10441047  RH  098%=      5-min Rain = 0
KFL1 230246Z 16003KT M04/M05 A2972 RMK A01 T10441047  RH  098%=      5-min Rain = 0
KFL1 230247Z 18002KT M04/M05 A2972 RMK A01 T10431047  RH  098%=      5-min Rain = 0
KFL1 230248Z 18003KT M04/M05 A2972 RMK A01 T10431046  RH  098%=      5-min Rain = 0
KFL1 230249Z 17003KT M04/M04 A2971 RMK A01 T10411044  RH  098%=      5-min Rain = 0
KFL1 230250Z 19002KT M04/M05 A2971 RMK A01 T10421045  RH  098%=      5-min Rain = 0
KFL1 230251Z 16002KT M04/M05 A2971 RMK A01 T10431046  RH  098%=      5-min Rain = 0
KFL1 230252Z 18002KT M04/M05 A2971 RMK A01 T10441048  RH  098%=      5-min Rain = 0
KFL1 230253Z 17003KT M04/M05 A2971 RMK A01 T10441047  RH  098%=      5-min Rain = 0
KFL1 230254Z 16003KT M04/M05 A2971 RMK A01 T10431047  RH  098%=      5-min Rain = 0
KFL1 230255Z 16003KT M05/M05 A2971 RMK A01 T10451048  RH  097%=      5-min Rain = 0
KFL1 230256Z 16003KT M04/M05 A2971 RMK A01 T10431047  RH  098%=      5-min Rain = 0
KFL1 230257Z 18003KT M04/M05 A2971 RMK A01 T10441047  RH  097%=      5-min Rain = 0
KFL1 230258Z 17003KT M04/M05 A2971 RMK A01 T10441047  RH  098%=      5-min Rain = 0
KFL1 230259Z 17003KT M04/M05 A2971 RMK A01 T10431047  RH  097%=      5-min Rain = 0
KFL1 230300Z 17005KT M04/M05 A2971 RMK A01 T10431047  RH  097%=      5-min Rain = 0
KFL1 230301Z 19004KT M04/M05 A2971 RMK A01 T10441048  RH  097%=      5-min Rain = 0
KFL1 230302Z 20004KT M04/M05 A2971 RMK A01 T10431046  RH  098%=      5-min Rain = 0
KFL1 230303Z 20004KT M05/M05 A2971 RMK A01 T10451048  RH  097%=      5-min Rain = 0
KFL1 230304Z 21004KT M04/M05 A2971 RMK A01 T10441047  RH  097%=      5-min Rain = 0
KFL1 230305Z 20003KT M04/M05 A2971 RMK A01 T10431047  RH  097%=      5-min Rain = 0
KFL1 230306Z 19003KT M04/M05 A297 RMK A01 T10441047  RH  097%=      5-min Rain = 0
KFL1 230307Z 18003KT M04/M05 A297 RMK A01 T10441047  RH  097%=      5-min Rain = 0
KFL1 230308Z 18003KT M04/M05 A297 RMK A01 T10441048  RH  097%=      5-min Rain = 0
KFL1 230309Z 20002KT M04/M05 A297 RMK A01 T10421046  RH  097%=      5-min Rain = 0
KFL1 230310Z 20004KT M04/M05 A297 RMK A01 T10431047  RH  097%=      5-min Rain = 0
KFL1 230311Z 19003KT M04/M05 A2971 RMK A01 T10431047  RH  097%=      5-min Rain = 0
KFL1 230312Z 19004KT M04/M05 A2971 RMK A01 T10431046  RH  097%=      5-min Rain = 0
KFL1 230313Z 20003KT M04/M05 A2971 RMK A01 T10441048  RH  097%=      5-min Rain = 0
KFL1 230314Z 20004KT M05/M05 A297 RMK A01 T10451049  RH  097%=      5-min Rain = 0
KFL1 230315Z 21004KT M04/M05 A297 RMK A01 T10441048  RH  097%=      5-min Rain = 0
KFL1 230316Z 20004KT M04/M05 A297 RMK A01 T10421046  RH  097%=      5-min Rain = 0
KFL1 230317Z 21004KT M04/M05 A297 RMK A01 T10431047  RH  097%=      5-min Rain = 0
KFL1 230318Z 22003KT M05/M05 A297 RMK A01 T10451049  RH  097%=      5-min Rain = 0
KFL1 230319Z 21004KT M04/M05 A297 RMK A01 T10441048  RH  097%=      5-min Rain = 0
KFL1 230320Z 21005KT M04/M05 A297 RMK A01 T10441048  RH  097%=      5-min Rain = 0
KFL1 230321Z 20003KT M04/M05 A297 RMK A01 T10441047  RH  097%=      5-min Rain = 0
KFL1 230322Z 21003KT M04/M05 A297 RMK A01 T10421046  RH  097%=      5-min Rain = 0
KFL1 230323Z 21005KT M04/M05 A297 RMK A01 T10431047  RH  097%=      5-min Rain = 0
KFL1 230324Z 21006KT M04/M05 A297 RMK A01 T10441048  RH  097%=      5-min Rain = 0
KFL1 230325Z 20005KT M04/M05 A2971 RMK A01 T10441048  RH  097%=      5-min Rain = 0
KFL1 230326Z 20005KT M04/M05 A2971 RMK A01 T10431047  RH  097%=      5-min Rain = 0
KFL1 230327Z 19004KT M04/M05 A2971 RMK A01 T10441047  RH  097%=      5-min Rain = 0
KFL1 230328Z 20005KT M05/M05 A2972 RMK A01 T10461049  RH  097%=      5-min Rain = 0
KFL1 230329Z 20005KT M05/M05 A2972 RMK A01 T10451048  RH  097%=      5-min Rain = 0
KFL1 230330Z 19005KT M04/M05 A2972 RMK A01 T10441048  RH  097%=      5-min Rain = 0
KFL1 230331Z 19004KT M04/M05 A2972 RMK A01 T10431046  RH  097%=      5-min Rain = 0
KFL1 230332Z 19003KT M04/M05 A2972 RMK A01 T10441048  RH  097%=      5-min Rain = 0
KFL1 230333Z 20003KT M04/M05 A2972 RMK A01 T10441048  RH  097%=      5-min Rain = 0
KFL1 230334Z 20004KT M04/M05 A2972 RMK A01 T10441047  RH  097%=      5-min Rain = 0
KFL1 230335Z 20004KT M05/M05 A2972 RMK A01 T10451048  RH  097%=      5-min Rain = 0
KFL1 230336Z 21004KT M04/M05 A2972 RMK A01 T10441047  RH  097%=      5-min Rain = 0
KFL1 230337Z 19003KT M05/M05 A2972 RMK A01 T10451049  RH  097%=      5-min Rain = 0
KFL1 230338Z 19003KT M05/M05 A2972 RMK A01 T10451048  RH  097%=      5-min Rain = 0
KFL1 230339Z 19004KT M04/M05 A2972 RMK A01 T10441047  RH  097%=      5-min Rain = 0
KFL1 230340Z 19005KT M05/M05 A2972 RMK A01 T10451048  RH  097%=      5-min Rain = 0
KFL1 230341Z 19006KT M04/M05 A2973 RMK A01 T10441048  RH  097%=      5-min Rain = 0
KFL1 230342Z 18006KT M05/M05 A2973 RMK A01 T10451048  RH  097%=      5-min Rain = 0
KFL1 230343Z 17006KT M05/M05 A2973 RMK A01 T10451048  RH  097%=      5-min Rain = 0
KFL1 230344Z 18005KT M05/M05 A2973 RMK A01 T10451048  RH  097%=      5-min Rain = 0
KFL1 230345Z 18004KT M04/M05 A2972 RMK A01 T10441048  RH  097%=      5-min Rain = 0
KFL1 230346Z 18004KT M04/M05 A2972 RMK A01 T10441048  RH  097%=      5-min Rain = 0
KFL1 230347Z 18004KT M04/M05 A2973 RMK A01 T10441048  RH  097%=      5-min Rain = 0
KFL1 230348Z 18005KT M05/M05 A2973 RMK A01 T10451048  RH  097%=      5-min Rain = 0
KFL1 230349Z 19005KT M05/M05 A2973 RMK A01 T10451049  RH  097%=      5-min Rain = 0
KFL1 230350Z 19006KT M04/M05 A2973 RMK A01 T10441047  RH  097%=      5-min Rain = 0
KFL1 230351Z 19005KT M05/M05 A2973 RMK A01 T10451048  RH  097%=      5-min Rain = 0
KFL1 230352Z 18005KT M05/M05 A2973 RMK A01 T10451049  RH  097%=      5-min Rain = 0
KFL1 230353Z 18005KT M04/M05 A2973 RMK A01 T10441048  RH  097%=      5-min Rain = 0
KFL1 230354Z 18006KT M04/M05 A2973 RMK A01 T10431047  RH  097%=      5-min Rain = 0
KFL1 230355Z 18007KT M05/M05 A2973 RMK A01 T10451049  RH  097%=      5-min Rain = 0
KFL1 230356Z 18005KT M05/M05 A2973 RMK A01 T10451048  RH  097%=      5-min Rain = 0
KFL1 230357Z 18004KT M04/M05 A2973 RMK A01 T10441047  RH  097%=      5-min Rain = 0
KFL1 230358Z 18005KT M05/M05 A2973 RMK A01 T10451049  RH  097%=      5-min Rain = 0
KFL1 230359Z 18005KT M05/M05 A2972 RMK A01 T10451048  RH  097%=      5-min Rain = 0
KFL1 230400Z 18005KT M05/M05 A2972 RMK A01 T10451048  RH  097%=      5-min Rain = 0
KFL1 230401Z 17004KT M05/M05 A2972 RMK A01 T10451048  RH  097%=      5-min Rain = 0
KFL1 230402Z 16004KT M05/M05 A2972 RMK A01 T10451049  RH  097%=      5-min Rain = 0
KFL1 230403Z 16005KT M05/M05 A2972 RMK A01 T10451049  RH  097%=      5-min Rain = 0
KFL1 230404Z 16005KT M04/M05 A2972 RMK A01 T10441047  RH  098%=      5-min Rain = 0
KFL1 230405Z 17005KT M04/M05 A2972 RMK A01 T10441047  RH  098%=      5-min Rain = 0
KFL1 230406Z 17005KT M05/M05 A2972 RMK A01 T10451048  RH  097%=      5-min Rain = 0
KFL1 230407Z 17006KT M05/M05 A2972 RMK A01 T10451048  RH  098%=      5-min Rain = 0
KFL1 230408Z 17004KT M05/M05 A2972 RMK A01 T10451048  RH  098%=      5-min Rain = 0
KFL1 230409Z 18005KT M05/M05 A2972 RMK A01 T10451048  RH  098%=      5-min Rain = 0
KFL1 230410Z 17005KT M04/M05 A2972 RMK A01 T10441048  RH  097%=      5-min Rain = 0
KFL1 230411Z 18005KT M04/M05 A2972 RMK A01 T10441047  RH  098%=      5-min Rain = 0
KFL1 230412Z 18006KT M04/M05 A2972 RMK A01 T10441047  RH  098%=      5-min Rain = 0
KFL1 230413Z 19004KT M04/M05 A2972 RMK A01 T10441048  RH  097%=      5-min Rain = 0
KFL1 230414Z 18004KT M05/M05 A2972 RMK A01 T10451048  RH  097%=      5-min Rain = 0
KFL1 230415Z 19004KT M04/M05 A2972 RMK A01 T10431047  RH  098%=      5-min Rain = 0
KFL1 230416Z 18004KT M04/M05 A2972 RMK A01 T10441047  RH  098%=      5-min Rain = 0
KFL1 230417Z 18004KT M04/M05 A2972 RMK A01 T10441048  RH  097%=      5-min Rain = 0
KFL1 230418Z 19005KT M04/M05 A2972 RMK A01 T10441048  RH  097%=      5-min Rain = 0
KFL1 230419Z 18004KT M04/M05 A2972 RMK A01 T10441048  RH  097%=      5-min Rain = 0
KFL1 230420Z 19003KT M04/M05 A2972 RMK A01 T10421045  RH  098%=      5-min Rain = 0
KFL1 230421Z 18004KT M04/M05 A2972 RMK A01 T10431046  RH  097%=      5-min Rain = 0
KFL1 230422Z 19003KT M04/M05 A2972 RMK A01 T10441048  RH  097%=      5-min Rain = 0
KFL1 230423Z 19003KT M05/M05 A2972 RMK A01 T10451048  RH  097%=      5-min Rain = 0
KFL1 230424Z 17003KT M04/M05 A2972 RMK A01 T10431047  RH  097%=      5-min Rain = 0
KFL1 230425Z 17003KT M04/M05 A2972 RMK A01 T10441047  RH  097%=      5-min Rain = 0
KFL1 230426Z 16004KT M04/M05 A2973 RMK A01 T10441048  RH  097%=      5-min Rain = 0
KFL1 230427Z 17003KT M04/M05 A2973 RMK A01 T10441048  RH  097%=      5-min Rain = 0
KFL1 230428Z 16003KT M04/M05 A2973 RMK A01 T10441048  RH  097%=      5-min Rain = 0
KFL1 230429Z 16004KT M04/M05 A2972 RMK A01 T10441047  RH  097%=      5-min Rain = 0
KFL1 230430Z 19004KT M04/M05 A2972 RMK A01 T10441048  RH  097%=      5-min Rain = 0
KFL1 230431Z 17003KT M05/M05 A2972 RMK A01 T10461050  RH  097%=      5-min Rain = 0
KFL1 230432Z 17003KT M04/M05 A2972 RMK A01 T10441048  RH  097%=      5-min Rain = 0
KFL1 230433Z 18005KT M04/M05 A2972 RMK A01 T10441048  RH  097%=      5-min Rain = 0
KFL1 230434Z 17005KT M04/M05 A2972 RMK A01 T10441048  RH  097%=      5-min Rain = 0
KFL1 230435Z 18003KT M04/M05 A2972 RMK A01 T10441048  RH  097%=      5-min Rain = 0
KFL1 230436Z 19002KT M05/M05 A2972 RMK A01 T10451049  RH  097%=      5-min Rain = 0
KFL1 230437Z 20002KT M05/M05 A2972 RMK A01 T10461050  RH  097%=      5-min Rain = 0
KFL1 230438Z 18003KT M05/M05 A2972 RMK A01 T10451049  RH  097%=      5-min Rain = 0
KFL1 230439Z 21003KT M05/M05 A2972 RMK A01 T10451049  RH  097%=      5-min Rain = 0
KFL1 230440Z 19004KT M05/M05 A2972 RMK A01 T10451049  RH  097%=      5-min Rain = 0
KFL1 230441Z 20003KT M05/M05 A2972 RMK A01 T10451049  RH  097%=      5-min Rain = 0
KFL1 230442Z 21003KT M05/M05 A2972 RMK A01 T10471051  RH  097%=      5-min Rain = 0
KFL1 230443Z 23003KT M05/M05 A2971 RMK A01 T10461050  RH  097%=      5-min Rain = 0
KFL1 230444Z 23004KT M05/M05 A2971 RMK A01 T10451049  RH  097%=      5-min Rain = 0
KFL1 230445Z 23004KT M05/M05 A2971 RMK A01 T10471051  RH  097%=      5-min Rain = 0
KFL1 230446Z 23005KT M05/M05 A2971 RMK A01 T10461050  RH  097%=      5-min Rain = 0
KFL1 230447Z 24005KT M05/M05 A2971 RMK A01 T10471051  RH  097%=      5-min Rain = 0
KFL1 230448Z 23005KT M05/M05 A2971 RMK A01 T10471051  RH  097%=      5-min Rain = 0
KFL1 230449Z 25005KT M05/M05 A2971 RMK A01 T10471051  RH  097%=      5-min Rain = 0
KFL1 230450Z 26004KT M05/M05 A297 RMK A01 T10461051  RH  097%=      5-min Rain = 0
KFL1 230451Z 26004KT M05/M05 A297 RMK A01 T10461050  RH  097%=      5-min Rain = 0
KFL1 230452Z 27003KT M05/M05 A297 RMK A01 T10471051  RH  097%=      5-min Rain = 0
KFL1 230453Z 28003KT M05/M05 A297 RMK A01 T10481052  RH  097%=      5-min Rain = 0
KFL1 230454Z 27004KT M05/M05 A297 RMK A01 T10461050  RH  097%=      5-min Rain = 0
KFL1 230455Z 27004KT M05/M05 A297 RMK A01 T10471051  RH  097%=      5-min Rain = 0
KFL1 230456Z 27005KT M05/M05 A297 RMK A01 T10481053  RH  097%=      5-min Rain = 0
KFL1 230457Z 28006KT M05/M05 A2971 RMK A01 T10471051  RH  097%=      5-min Rain = 0
KFL1 230458Z 28006KT M05/M05 A2971 RMK A01 T10461050  RH  097%=      5-min Rain = 0
KFL1 230459Z 28006KT M05/M05 A2971 RMK A01 T10471051  RH  097%=      5-min Rain = 0
KFL1 230500Z 28006KT M05/M05 A2971 RMK A01 T10481052  RH  097%=      5-min Rain = 0
KFL1 230501Z 28005KT M05/M05 A2972 RMK A01 T10491053  RH  097%=      5-min Rain = 0
KFL1 230502Z 28004KT M05/M05 A2972 RMK A01 T10481053  RH  097%=      5-min Rain = 0
KFL1 230503Z 29005KT M05/M05 A2972 RMK A01 T10501054  RH  097%=      5-min Rain = 0
KFL1 230504Z 28004KT M05/M05 A2972 RMK A01 T10491053  RH  097%=      5-min Rain = 0
KFL1 230505Z 28005KT M05/M05 A2971 RMK A01 T10491053  RH  097%=      5-min Rain = 0
KFL1 230506Z 28005KT M05/M05 A2971 RMK A01 T10491054  RH  097%=      5-min Rain = 0
KFL1 230507Z 28005KT M05/M05 A2971 RMK A01 T10491054  RH  097%=      5-min Rain = 0
KFL1 230508Z 28003KT M05/M05 A2971 RMK A01 T10491054  RH  097%=      5-min Rain = 0
KFL1 230509Z 27004KT M05/M05 A2971 RMK A01 T10491054  RH  097%=      5-min Rain = 0
KFL1 230510Z 28005KT M05/M06 A297 RMK A01 T10501055  RH  097%=      5-min Rain = 0
KFL1 230511Z 28004KT M05/M05 A297 RMK A01 T10491053  RH  097%=      5-min Rain = 0
KFL1 230512Z 28004KT M05/M05 A297 RMK A01 T10501054  RH  097%=      5-min Rain = 0
KFL1 230513Z 29004KT M05/M06 A297 RMK A01 T10511055  RH  097%=      5-min Rain = 0
KFL1 230514Z 29004KT M05/M05 A297 RMK A01 T10501054  RH  097%=      5-min Rain = 0
KFL1 230515Z 29005KT M05/M05 A297 RMK A01 T10501054  RH  097%=      5-min Rain = 0
KFL1 230516Z 29004KT M05/M05 A297 RMK A01 T10501054  RH  097%=      5-min Rain = 0
KFL1 230517Z 29003KT M05/M06 A297 RMK A01 T10501055  RH  097%=      5-min Rain = 0
KFL1 230518Z 28003KT M05/M05 A297 RMK A01 T10491054  RH  097%=      5-min Rain = 0
KFL1 230519Z 27002KT M05/M06 A297 RMK A01 T10511056  RH  097%=      5-min Rain = 0
KFL1 230520Z 27002KT M05/M06 A297 RMK A01 T10511056  RH  096%=      5-min Rain = 0
KFL1 230521Z 27002KT M05/M05 A297 RMK A01 T10491054  RH  097%=      5-min Rain = 0
KFL1 230522Z 27002KT M05/M06 A297 RMK A01 T10511056  RH  096%=      5-min Rain = 0
KFL1 230523Z 25001KT M05/M06 A297 RMK A01 T10511056  RH  097%=      5-min Rain = 0
KFL1 230524Z 27002KT M05/M06 A297 RMK A01 T10521056  RH  096%=      5-min Rain = 0
KFL1 230525Z 24001KT M05/M06 A297 RMK A01 T10511056  RH  096%=      5-min Rain = 0
KFL1 230526Z 24001KT M05/M06 A297 RMK A01 T10511056  RH  097%=      5-min Rain = 0
KFL1 230527Z 26002KT M05/M06 A297 RMK A01 T10521056  RH  097%=      5-min Rain = 0
KFL1 230528Z 26003KT M05/M06 A2969 RMK A01 T10511056  RH  097%=      5-min Rain = 0
KFL1 230529Z 27003KT M05/M06 A2969 RMK A01 T10521057  RH  096%=      5-min Rain = 0
KFL1 230530Z 27003KT M05/M06 A2969 RMK A01 T10511056  RH  097%=      5-min Rain = 0
KFL1 230531Z 27003KT M05/M06 A2969 RMK A01 T10501055  RH  097%=      5-min Rain = 0
KFL1 230532Z 26004KT M05/M06 A2969 RMK A01 T10521057  RH  096%=      5-min Rain = 0
KFL1 230533Z 26004KT M05/M06 A2969 RMK A01 T10521056  RH  096%=      5-min Rain = 0
KFL1 230534Z 26004KT M05/M06 A2969 RMK A01 T10521057  RH  096%=      5-min Rain = 0
KFL1 230535Z 26005KT M05/M06 A2969 RMK A01 T10521057  RH  096%=      5-min Rain = 0
KFL1 230536Z 26003KT M05/M06 A297 RMK A01 T10511056  RH  096%=      5-min Rain = 0
KFL1 230537Z 25004KT M05/M06 A297 RMK A01 T10521057  RH  096%=      5-min Rain = 0
KFL1 230538Z 26004KT M05/M06 A297 RMK A01 T10531058  RH  096%=      5-min Rain = 0
KFL1 230539Z 25004KT M05/M06 A297 RMK A01 T10521057  RH  096%=      5-min Rain = 0
KFL1 230540Z 25004KT M05/M06 A297 RMK A01 T10531058  RH  096%=      5-min Rain = 0
KFL1 230541Z 25004KT M05/M06 A297 RMK A01 T10521057  RH  096%=      5-min Rain = 0
KFL1 230542Z 25003KT M05/M06 A297 RMK A01 T10531058  RH  096%=      5-min Rain = 0
KFL1 230543Z 25004KT M05/M06 A297 RMK A01 T10531058  RH  096%=      5-min Rain = 0
KFL1 230544Z 25004KT M05/M06 A297 RMK A01 T10541059  RH  096%=      5-min Rain = 0
KFL1 230545Z 25004KT M05/M06 A297 RMK A01 T10531058  RH  096%=      5-min Rain = 0
KFL1 230546Z 25004KT M05/M06 A297 RMK A01 T10531058  RH  096%=      5-min Rain = 0
KFL1 230547Z 25004KT M05/M06 A297 RMK A01 T10541059  RH  096%=      5-min Rain = 0
KFL1 230548Z 25004KT M05/M06 A297 RMK A01 T10541059  RH  096%=      5-min Rain = 0
KFL1 230549Z 26004KT M05/M06 A297 RMK A01 T10531058  RH  096%=      5-min Rain = 0
KFL1 230550Z 25003KT M05/M06 A297 RMK A01 T10541059  RH  096%=      5-min Rain = 0
KFL1 230551Z 25004KT M05/M06 A297 RMK A01 T10541059  RH  096%=      5-min Rain = 0
KFL1 230552Z 25004KT M05/M06 A297 RMK A01 T10541060  RH  096%=      5-min Rain = 0
KFL1 230553Z 25005KT M05/M06 A297 RMK A01 T10531058  RH  096%=      5-min Rain = 0
KFL1 230554Z 25004KT M05/M06 A297 RMK A01 T10541059  RH  096%=      5-min Rain = 0
KFL1 230555Z 25005KT M05/M06 A297 RMK A01 T10541059  RH  096%=      5-min Rain = 0
KFL1 230556Z 25005KT M06/M06 A297 RMK A01 T10551060  RH  096%=      5-min Rain = 0
KFL1 230557Z 25005KT M06/M06 A297 RMK A01 T10561061  RH  096%=      5-min Rain = 0
KFL1 230558Z 25006KT M05/M06 A297 RMK A01 T10541060  RH  096%=      5-min Rain = 0
KFL1 230559Z 25006KT M05/M06 A297 RMK A01 T10541059  RH  096%=      5-min Rain = 0

Page generated in 0.1235 seconds.